Observation data for Estelline on 03/24/2019      Previous  Date  Next       Current Mesonet Observations  Soil Data  Daily Summary Page  Observations in Plain Language
KES1 240500Z 08004KT 14/05 A2995 RMK A01 T01350045  RH  054%=      5-min Rain = 0
KES1 240501Z 08005KT 13/04 A2995 RMK A01 T01340044  RH  054%=      5-min Rain = 0
KES1 240502Z 08005KT 13/04 A2995 RMK A01 T01330044  RH  055%=      5-min Rain = 0
KES1 240503Z 09006KT 13/05 A2995 RMK A01 T01320045  RH  055%=      5-min Rain = 0
KES1 240504Z 09006KT 13/05 A2995 RMK A01 T01330046  RH  056%=      5-min Rain = 0
KES1 240505Z 09006KT 13/05 A2995 RMK A01 T01320045  RH  056%=      5-min Rain = 0
KES1 240506Z 09006KT 13/05 A2995 RMK A01 T01310045  RH  056%=      5-min Rain = 0
KES1 240507Z 10006KT 13/05 A2995 RMK A01 T01310047  RH  057%=      5-min Rain = 0
KES1 240508Z 10006KT 13/05 A2995 RMK A01 T01320048  RH  057%=      5-min Rain = 0
KES1 240509Z 10006KT 13/05 A2995 RMK A01 T01330048  RH  057%=      5-min Rain = 0
KES1 240510Z 10006KT 13/05 A2995 RMK A01 T01340049  RH  056%=      5-min Rain = 0
KES1 240511Z 10006KT 14/05 A2995 RMK A01 T01360050  RH  056%=      5-min Rain = 0
KES1 240512Z 10006KT 14/05 A2995 RMK A01 T01360050  RH  056%=      5-min Rain = 0
KES1 240513Z 10006KT 14/05 A2995 RMK A01 T01370050  RH  056%=      5-min Rain = 0
KES1 240514Z 10005KT 14/05 A2995 RMK A01 T01370050  RH  056%=      5-min Rain = 0
KES1 240515Z 11006KT 14/05 A2995 RMK A01 T01380051  RH  056%=      5-min Rain = 0
KES1 240516Z 10006KT 14/05 A2995 RMK A01 T01390051  RH  055%=      5-min Rain = 0
KES1 240517Z 11006KT 14/05 A2994 RMK A01 T01390051  RH  055%=      5-min Rain = 0
KES1 240518Z 11005KT 14/05 A2994 RMK A01 T01390051  RH  055%=      5-min Rain = 0
KES1 240519Z 11006KT 14/05 A2994 RMK A01 T01390051  RH  055%=      5-min Rain = 0
KES1 240520Z 11005KT 14/05 A2994 RMK A01 T01380051  RH  056%=      5-min Rain = 0
KES1 240521Z 12006KT 14/05 A2994 RMK A01 T01380052  RH  056%=      5-min Rain = 0
KES1 240522Z 12005KT 14/05 A2994 RMK A01 T01390053  RH  056%=      5-min Rain = 0
KES1 240523Z 12006KT 14/06 A2994 RMK A01 T01410055  RH  056%=      5-min Rain = 0
KES1 240524Z 11006KT 14/06 A2994 RMK A01 T01440055  RH  055%=      5-min Rain = 0
KES1 240525Z 11007KT 14/06 A2994 RMK A01 T01440055  RH  055%=      5-min Rain = 0
KES1 240526Z 12007KT 15/06 A2994 RMK A01 T01450056  RH  055%=      5-min Rain = 0
KES1 240527Z 12007KT 15/06 A2994 RMK A01 T01460057  RH  055%=      5-min Rain = 0
KES1 240528Z 12006KT 15/06 A2994 RMK A01 T01460057  RH  055%=      5-min Rain = 0
KES1 240529Z 12007KT 15/06 A2994 RMK A01 T01460058  RH  055%=      5-min Rain = 0
KES1 240530Z 12007KT 15/06 A2994 RMK A01 T01460058  RH  056%=      5-min Rain = 0
KES1 240531Z 12007KT 15/06 A2994 RMK A01 T01450058  RH  056%=      5-min Rain = 0
KES1 240532Z 12007KT 15/06 A2994 RMK A01 T01450059  RH  056%=      5-min Rain = 0
KES1 240533Z 12006KT 15/06 A2994 RMK A01 T01450058  RH  056%=      5-min Rain = 0
KES1 240534Z 12006KT 14/06 A2994 RMK A01 T01440058  RH  056%=      5-min Rain = 0
KES1 240535Z 12007KT 14/06 A2994 RMK A01 T01430058  RH  057%=      5-min Rain = 0
KES1 240536Z 12007KT 14/06 A2994 RMK A01 T01420058  RH  057%=      5-min Rain = 0
KES1 240537Z 12007KT 14/06 A2994 RMK A01 T01410059  RH  057%=      5-min Rain = 0
KES1 240538Z 12007KT 14/06 A2994 RMK A01 T01400059  RH  058%=      5-min Rain = 0
KES1 240539Z 12007KT 14/06 A2994 RMK A01 T01400059  RH  058%=      5-min Rain = 0
KES1 240540Z 12007KT 14/06 A2994 RMK A01 T01400059  RH  058%=      5-min Rain = 0
KES1 240541Z 11007KT 14/06 A2994 RMK A01 T01390059  RH  058%=      5-min Rain = 0
KES1 240542Z 11006KT 14/06 A2994 RMK A01 T01380059  RH  059%=      5-min Rain = 0
KES1 240543Z 11007KT 14/06 A2994 RMK A01 T01380059  RH  059%=      5-min Rain = 0
KES1 240544Z 11006KT 14/06 A2994 RMK A01 T01370059  RH  059%=      5-min Rain = 0
KES1 240545Z 12005KT 14/06 A2994 RMK A01 T01370059  RH  059%=      5-min Rain = 0
KES1 240546Z 12004KT 14/06 A2994 RMK A01 T01370059  RH  059%=      5-min Rain = 0
KES1 240547Z 12004KT 14/06 A2994 RMK A01 T01370059  RH  059%=      5-min Rain = 0
KES1 240548Z 12003KT 14/06 A2994 RMK A01 T01380059  RH  059%=      5-min Rain = 0
KES1 240549Z 13002KT 14/06 A2994 RMK A01 T01370058  RH  059%=      5-min Rain = 0
KES1 240550Z 12001KT 14/06 A2994 RMK A01 T01370058  RH  059%=      5-min Rain = 0
KES1 240551Z 21001KT 14/06 A2994 RMK A01 T01360057  RH  059%=      5-min Rain = 0
KES1 240552Z 27001KT 13/05 A2994 RMK A01 T01330052  RH  058%=      5-min Rain = 0
KES1 240553Z 31001KT 13/05 A2994 RMK A01 T01290049  RH  058%=      5-min Rain = 0
KES1 240554Z 30002KT 13/05 A2994 RMK A01 T01260048  RH  059%=      5-min Rain = 0
KES1 240555Z 31002KT 12/05 A2994 RMK A01 T01230048  RH  060%=      5-min Rain = 0
KES1 240556Z 33002KT 12/05 A2994 RMK A01 T01210048  RH  061%=      5-min Rain = 0
KES1 240557Z 32002KT 12/05 A2994 RMK A01 T01190048  RH  061%=      5-min Rain = 0
KES1 240558Z 35002KT 12/05 A2994 RMK A01 T01190049  RH  062%=      5-min Rain = 0
KES1 240559Z 03001KT 12/05 A2994 RMK A01 T01190050  RH  063%=      5-min Rain = 0
KES1 240600Z 03001KT 12/05 A2994 RMK A01 T01210052  RH  063%=      5-min Rain = 0
KES1 240601Z 05001KT 12/05 A2994 RMK A01 T01230053  RH  062%=      5-min Rain = 0
KES1 240602Z 05002KT 13/06 A2994 RMK A01 T01250057  RH  063%=      5-min Rain = 0
KES1 240603Z 07002KT 13/06 A2994 RMK A01 T01270055  RH  061%=      5-min Rain = 0
KES1 240604Z 09003KT 13/05 A2994 RMK A01 T01250050  RH  060%=      5-min Rain = 0
KES1 240605Z 10003KT 12/05 A2994 RMK A01 T01200047  RH  061%=      5-min Rain = 0
KES1 240606Z 11004KT 12/05 A2994 RMK A01 T01160047  RH  063%=      5-min Rain = 0
KES1 240607Z 10005KT 11/05 A2994 RMK A01 T01140049  RH  064%=      5-min Rain = 0
KES1 240608Z 11005KT 11/05 A2994 RMK A01 T01140051  RH  065%=      5-min Rain = 0
KES1 240609Z 12004KT 12/05 A2994 RMK A01 T01150052  RH  065%=      5-min Rain = 0
KES1 240610Z 12004KT 12/05 A2994 RMK A01 T01150051  RH  065%=      5-min Rain = 0
KES1 240611Z 13003KT 12/05 A2994 RMK A01 T01160053  RH  065%=      5-min Rain = 0
KES1 240612Z 14003KT 12/06 A2994 RMK A01 T01190055  RH  065%=      5-min Rain = 0
KES1 240613Z 13003KT 12/06 A2994 RMK A01 T01210055  RH  064%=      5-min Rain = 0
KES1 240614Z 13003KT 12/06 A2994 RMK A01 T01230056  RH  064%=      5-min Rain = 0
KES1 240615Z 13003KT 12/06 A2994 RMK A01 T01240056  RH  063%=      5-min Rain = 0
KES1 240616Z 12004KT 13/05 A2994 RMK A01 T01250054  RH  062%=      5-min Rain = 0
KES1 240617Z 11003KT 12/05 A2994 RMK A01 T01220052  RH  062%=      5-min Rain = 0
KES1 240618Z 12004KT 12/05 A2994 RMK A01 T01200054  RH  064%=      5-min Rain = 0
KES1 240619Z 11004KT 12/05 A2994 RMK A01 T01200053  RH  064%=      5-min Rain = 0
KES1 240620Z 11003KT 12/05 A2994 RMK A01 T01190054  RH  064%=      5-min Rain = 0
KES1 240621Z 11003KT 12/06 A2994 RMK A01 T01190055  RH  065%=      5-min Rain = 0
KES1 240622Z 11003KT 12/05 A2994 RMK A01 T01200054  RH  064%=      5-min Rain = 0
KES1 240623Z 12003KT 12/05 A2994 RMK A01 T01200054  RH  064%=      5-min Rain = 0
KES1 240624Z 12003KT 12/06 A2994 RMK A01 T01200055  RH  065%=      5-min Rain = 0
KES1 240625Z 13001KT 12/06 A2994 RMK A01 T01200055  RH  064%=      5-min Rain = 0
KES1 240626Z 13001KT 12/05 A2994 RMK A01 T01200054  RH  064%=      5-min Rain = 0
KES1 240627Z 12001KT 12/06 A2994 RMK A01 T01190055  RH  065%=      5-min Rain = 0
KES1 240628Z 10001KT 12/06 A2994 RMK A01 T01190055  RH  065%=      5-min Rain = 0
KES1 240629Z 13002KT 12/05 A2994 RMK A01 T01200054  RH  064%=      5-min Rain = 0
KES1 240630Z 11001KT 12/05 A2994 RMK A01 T01200054  RH  064%=      5-min Rain = 0
KES1 240631Z 05001KT 12/05 A2994 RMK A01 T01190054  RH  064%=      5-min Rain = 0
KES1 240632Z 09001KT 12/05 A2994 RMK A01 T01190053  RH  064%=      5-min Rain = 0
KES1 240633Z 03000KT 12/05 A2994 RMK A01 T01190054  RH  065%=      5-min Rain = 0
KES1 240634Z 29001KT 12/06 A2994 RMK A01 T01190055  RH  065%=      5-min Rain = 0
KES1 240635Z 27001KT 12/05 A2994 RMK A01 T01190051  RH  063%=      5-min Rain = 0
KES1 240636Z 31000KT 12/05 A2994 RMK A01 T01160051  RH  064%=      5-min Rain = 0
KES1 240637Z 06000KT 12/05 A2994 RMK A01 T01160053  RH  065%=      5-min Rain = 0
KES1 240638Z 35001KT 12/05 A2994 RMK A01 T01160053  RH  065%=      5-min Rain = 0
KES1 240639Z 00000KT 12/05 A2994 RMK A01 T01160053  RH  065%=      5-min Rain = 0
KES1 240640Z 00000KT 12/05 A2994 RMK A01 T01160054  RH  066%=      5-min Rain = 0
KES1 240641Z 30001KT 12/05 A2994 RMK A01 T01170053  RH  065%=      5-min Rain = 0
KES1 240642Z 25002KT 11/04 A2994 RMK A01 T01130044  RH  063%=      5-min Rain = 0
KES1 240643Z 28002KT 10/04 A2994 RMK A01 T01030041  RH  065%=      5-min Rain = 0
KES1 240644Z 25002KT 10/04 A2994 RMK A01 T00980042  RH  068%=      5-min Rain = 0
KES1 240645Z 16001KT 10/04 A2994 RMK A01 T00960044  RH  070%=      5-min Rain = 0
KES1 240646Z 14001KT 10/05 A2994 RMK A01 T00960046  RH  071%=      5-min Rain = 0
KES1 240647Z 15001KT 10/05 A2994 RMK A01 T00990050  RH  071%=      5-min Rain = 0
KES1 240648Z 15000KT 10/05 A2994 RMK A01 T01040053  RH  071%=      5-min Rain = 0
KES1 240649Z 21000KT 11/05 A2994 RMK A01 T01070050  RH  068%=      5-min Rain = 0
KES1 240650Z 24001KT 11/04 A2994 RMK A01 T01060044  RH  066%=      5-min Rain = 0
KES1 240651Z 25001KT 10/04 A2994 RMK A01 T01010043  RH  067%=      5-min Rain = 0
KES1 240652Z 23000KT 10/04 A2994 RMK A01 T00980043  RH  068%=      5-min Rain = 0
KES1 240653Z 13002KT 10/05 A2994 RMK A01 T00970045  RH  070%=      5-min Rain = 0
KES1 240654Z 18001KT 10/05 A2994 RMK A01 T00970046  RH  070%=      5-min Rain = 0
KES1 240655Z 16001KT 10/04 A2994 RMK A01 T00980044  RH  069%=      5-min Rain = 0
KES1 240656Z 13001KT 10/05 A2994 RMK A01 T00970045  RH  070%=      5-min Rain = 0
KES1 240657Z 16000KT 10/05 A2994 RMK A01 T00970048  RH  071%=      5-min Rain = 0
KES1 240658Z 27001KT 10/04 A2994 RMK A01 T00970044  RH  070%=      5-min Rain = 0
KES1 240659Z 27003KT 10/04 A2994 RMK A01 T00960044  RH  070%=      5-min Rain = 0
KES1 240700Z 26003KT 09/04 A2994 RMK A01 T00940043  RH  071%=      5-min Rain = 0
KES1 240701Z 27002KT 09/04 A2994 RMK A01 T00930044  RH  071%=      5-min Rain = 0
KES1 240702Z 26004KT 09/04 A2994 RMK A01 T00920044  RH  072%=      5-min Rain = 0
KES1 240703Z 25003KT 09/04 A2994 RMK A01 T00910041  RH  071%=      5-min Rain = 0
KES1 240704Z 25002KT 09/04 A2994 RMK A01 T00880040  RH  072%=      5-min Rain = 0
KES1 240705Z 23001KT 09/04 A2994 RMK A01 T00870042  RH  073%=      5-min Rain = 0
KES1 240706Z 23002KT 09/04 A2994 RMK A01 T00870042  RH  074%=      5-min Rain = 0
KES1 240707Z 25003KT 09/04 A2994 RMK A01 T00870043  RH  073%=      5-min Rain = 0
KES1 240708Z 26005KT 09/04 A2994 RMK A01 T00880043  RH  073%=      5-min Rain = 0
KES1 240709Z 25005KT 09/04 A2994 RMK A01 T00890042  RH  073%=      5-min Rain = 0
KES1 240710Z 25005KT 09/04 A2994 RMK A01 T00870042  RH  073%=      5-min Rain = 0
KES1 240711Z 24006KT 09/04 A2994 RMK A01 T00860041  RH  073%=      5-min Rain = 0
KES1 240712Z 24005KT 09/04 A2994 RMK A01 T00850041  RH  074%=      5-min Rain = 0
KES1 240713Z 24005KT 09/04 A2994 RMK A01 T00850042  RH  074%=      5-min Rain = 0
KES1 240714Z 24005KT 08/04 A2994 RMK A01 T00840042  RH  074%=      5-min Rain = 0
KES1 240715Z 24004KT 09/04 A2994 RMK A01 T00850042  RH  075%=      5-min Rain = 0
KES1 240716Z 24006KT 09/04 A2994 RMK A01 T00850043  RH  075%=      5-min Rain = 0
KES1 240717Z 24007KT 09/04 A2994 RMK A01 T00860043  RH  074%=      5-min Rain = 0
KES1 240718Z 25006KT 09/04 A2994 RMK A01 T00860043  RH  075%=      5-min Rain = 0
KES1 240719Z 25005KT 09/05 A2994 RMK A01 T00860045  RH  075%=      5-min Rain = 0
KES1 240720Z 24005KT 09/05 A2994 RMK A01 T00860045  RH  075%=      5-min Rain = 0
KES1 240721Z 24005KT 09/05 A2994 RMK A01 T00870045  RH  075%=      5-min Rain = 0
KES1 240722Z 24004KT 09/05 A2994 RMK A01 T00880045  RH  074%=      5-min Rain = 0
KES1 240723Z 24004KT 09/05 A2994 RMK A01 T00870045  RH  075%=      5-min Rain = 0
KES1 240724Z 23004KT 09/05 A2994 RMK A01 T00870046  RH  075%=      5-min Rain = 0
KES1 240725Z 23004KT 09/05 A2994 RMK A01 T00880046  RH  075%=      5-min Rain = 0
KES1 240726Z 23004KT 09/05 A2994 RMK A01 T00880045  RH  075%=      5-min Rain = 0
KES1 240727Z 22003KT 09/05 A2994 RMK A01 T00870045  RH  075%=      5-min Rain = 0
KES1 240728Z 22004KT 09/04 A2994 RMK A01 T00860044  RH  075%=      5-min Rain = 0
KES1 240729Z 22004KT 09/04 A2994 RMK A01 T00860044  RH  075%=      5-min Rain = 0
KES1 240730Z 22005KT 09/04 A2994 RMK A01 T00850044  RH  075%=      5-min Rain = 0
KES1 240731Z 22006KT 09/05 A2994 RMK A01 T00850045  RH  076%=      5-min Rain = 0
KES1 240732Z 22005KT 09/05 A2994 RMK A01 T00860045  RH  075%=      5-min Rain = 0
KES1 240733Z 22005KT 09/04 A2994 RMK A01 T00860043  RH  074%=      5-min Rain = 0
KES1 240734Z 21008KT 09/05 A2994 RMK A01 T00850045  RH  076%=      5-min Rain = 0
KES1 240735Z 21008KT 09/05 A2994 RMK A01 T00890049  RH  076%=      5-min Rain = 0
KES1 240736Z 21006KT 09/05 A2993 RMK A01 T00930049  RH  074%=      5-min Rain = 0
KES1 240737Z 21006KT 10/05 A2993 RMK A01 T00950050  RH  073%=      5-min Rain = 0
KES1 240738Z 21010KT 10/05 A2994 RMK A01 T00960050  RH  073%=      5-min Rain = 0
KES1 240739Z 21009KT 10/05 A2994 RMK A01 T00960049  RH  072%=      5-min Rain = 0
KES1 240740Z 21008KT 10/05 A2993 RMK A01 T00970049  RH  072%=      5-min Rain = 0
KES1 240741Z 21008KT 10/05 A2993 RMK A01 T00980049  RH  072%=      5-min Rain = 0
KES1 240742Z 21009KT 10/05 A2993 RMK A01 T00980049  RH  072%=      5-min Rain = 0
KES1 240743Z 21010KT 10/05 A2993 RMK A01 T01000050  RH  071%=      5-min Rain = 0
KES1 240744Z 21008KT 10/05 A2993 RMK A01 T01020051  RH  070%=      5-min Rain = 0
KES1 240745Z 20009KT 10/05 A2993 RMK A01 T01040051  RH  070%=      5-min Rain = 0
KES1 240746Z 20010KT 10/05 A2993 RMK A01 T01040050  RH  069%=      5-min Rain = 0
KES1 240747Z 20009KT 10/05 A2993 RMK A01 T01040050  RH  069%=      5-min Rain = 0
KES1 240748Z 20010KT 11/05 A2993 RMK A01 T01060050  RH  068%=      5-min Rain = 0
KES1 240749Z 19010KT 11/05 A2993 RMK A01 T01070049  RH  067%=      5-min Rain = 0
KES1 240750Z 19010KT 11/05 A2993 RMK A01 T01080049  RH  067%=      5-min Rain = 0
KES1 240751Z 19009KT 11/05 A2993 RMK A01 T01090048  RH  066%=      5-min Rain = 0
KES1 240752Z 19009KT 11/05 A2993 RMK A01 T01110048  RH  065%=      5-min Rain = 0
KES1 240753Z 18009KT 11/05 A2993 RMK A01 T01120047  RH  065%=      5-min Rain = 0
KES1 240754Z 19010KT 11/05 A2993 RMK A01 T01130047  RH  064%=      5-min Rain = 0
KES1 240755Z 19009KT 11/05 A2993 RMK A01 T01130046  RH  063%=      5-min Rain = 0
KES1 240756Z 19010KT 12/05 A2993 RMK A01 T01150045  RH  062%=      5-min Rain = 0
KES1 240757Z 19009KT 12/05 A2993 RMK A01 T01170045  RH  061%=      5-min Rain = 0
KES1 240758Z 19009KT 12/05 A2993 RMK A01 T01190045  RH  061%=      5-min Rain = 0
KES1 240759Z 19010KT 12/04 A2993 RMK A01 T01210044  RH  060%=      5-min Rain = 0
KES1 240800Z 19010KT 12/04 A2993 RMK A01 T01240042  RH  057%=      5-min Rain = 0
KES1 240801Z 19009KT 13/04 A2993 RMK A01 T01260038  RH  055%=      5-min Rain = 0
KES1 240802Z 19009KT 13/04 A2993 RMK A01 T01280036  RH  054%=      5-min Rain = 0
KES1 240803Z 19009KT 13/03 A2993 RMK A01 T01300033  RH  052%=      5-min Rain = 0
KES1 240804Z 19008KT 13/03 A2993 RMK A01 T01320033  RH  051%=      5-min Rain = 0
KES1 240805Z 20008KT 13/03 A2993 RMK A01 T01330030  RH  050%=      5-min Rain = 0
KES1 240806Z 21006KT 13/03 A2993 RMK A01 T01330030  RH  049%=      5-min Rain = 0
KES1 240807Z 20007KT 13/03 A2993 RMK A01 T01320034  RH  051%=      5-min Rain = 0
KES1 240808Z 20007KT 13/03 A2993 RMK A01 T01300032  RH  052%=      5-min Rain = 0
KES1 240809Z 20006KT 13/03 A2993 RMK A01 T01280031  RH  051%=      5-min Rain = 0
KES1 240810Z 21005KT 13/03 A2993 RMK A01 T01270033  RH  053%=      5-min Rain = 0
KES1 240811Z 21006KT 12/04 A2993 RMK A01 T01240036  RH  055%=      5-min Rain = 0
KES1 240812Z 21006KT 12/04 A2993 RMK A01 T01200035  RH  056%=      5-min Rain = 0
KES1 240813Z 22005KT 12/04 A2994 RMK A01 T01170036  RH  058%=      5-min Rain = 0
KES1 240814Z 22006KT 11/04 A2994 RMK A01 T01130039  RH  060%=      5-min Rain = 0
KES1 240815Z 21006KT 11/04 A2994 RMK A01 T01090039  RH  062%=      5-min Rain = 0
KES1 240816Z 21006KT 11/04 A2993 RMK A01 T01050038  RH  063%=      5-min Rain = 0
KES1 240817Z 21006KT 10/04 A2993 RMK A01 T01020038  RH  065%=      5-min Rain = 0
KES1 240818Z 20008KT 10/04 A2993 RMK A01 T01000038  RH  065%=      5-min Rain = 0
KES1 240819Z 21007KT 10/04 A2993 RMK A01 T01000037  RH  065%=      5-min Rain = 0
KES1 240820Z 20008KT 10/04 A2993 RMK A01 T01010038  RH  065%=      5-min Rain = 0
KES1 240821Z 20008KT 10/04 A2993 RMK A01 T01020036  RH  064%=      5-min Rain = 0
KES1 240822Z 20008KT 11/03 A2993 RMK A01 T01050034  RH  062%=      5-min Rain = 0
KES1 240823Z 20007KT 11/03 A2993 RMK A01 T01090033  RH  060%=      5-min Rain = 0
KES1 240824Z 20006KT 11/03 A2993 RMK A01 T01100032  RH  059%=      5-min Rain = 0
KES1 240825Z 20006KT 11/03 A2993 RMK A01 T01110032  RH  059%=      5-min Rain = 0
KES1 240826Z 20006KT 11/03 A2993 RMK A01 T01090033  RH  059%=      5-min Rain = 0
KES1 240827Z 20006KT 11/03 A2993 RMK A01 T01080032  RH  059%=      5-min Rain = 0
KES1 240828Z 20006KT 11/03 A2993 RMK A01 T01070031  RH  059%=      5-min Rain = 0
KES1 240829Z 21006KT 11/03 A2993 RMK A01 T01070028  RH  058%=      5-min Rain = 0
KES1 240830Z 20006KT 11/03 A2993 RMK A01 T01070026  RH  057%=      5-min Rain = 0
KES1 240831Z 20006KT 11/02 A2993 RMK A01 T01080024  RH  056%=      5-min Rain = 0
KES1 240832Z 20006KT 11/02 A2993 RMK A01 T01110024  RH  055%=      5-min Rain = 0
KES1 240833Z 21006KT 11/02 A2993 RMK A01 T01140023  RH  053%=      5-min Rain = 0
KES1 240834Z 21006KT 12/02 A2993 RMK A01 T01170022  RH  052%=      5-min Rain = 0
KES1 240835Z 22005KT 12/02 A2993 RMK A01 T01180022  RH  052%=      5-min Rain = 0
KES1 240836Z 22006KT 12/02 A2993 RMK A01 T01190023  RH  052%=      5-min Rain = 0
KES1 240837Z 21006KT 12/02 A2993 RMK A01 T01180023  RH  052%=      5-min Rain = 0
KES1 240838Z 21006KT 12/02 A2993 RMK A01 T01170023  RH  052%=      5-min Rain = 0
KES1 240839Z 21007KT 12/02 A2993 RMK A01 T01160023  RH  053%=      5-min Rain = 0
KES1 240840Z 21007KT 12/02 A2993 RMK A01 T01150022  RH  053%=      5-min Rain = 0
KES1 240841Z 21006KT 12/02 A2993 RMK A01 T01150022  RH  053%=      5-min Rain = 0
KES1 240842Z 22006KT 12/02 A2993 RMK A01 T01150023  RH  053%=      5-min Rain = 0
KES1 240843Z 22006KT 11/02 A2993 RMK A01 T01140023  RH  053%=      5-min Rain = 0
KES1 240844Z 22006KT 11/02 A2993 RMK A01 T01130023  RH  054%=      5-min Rain = 0
KES1 240845Z 22006KT 11/02 A2993 RMK A01 T01110022  RH  054%=      5-min Rain = 0
KES1 240846Z 22006KT 11/02 A2993 RMK A01 T01110022  RH  054%=      5-min Rain = 0
KES1 240847Z 22006KT 11/02 A2993 RMK A01 T01100023  RH  055%=      5-min Rain = 0
KES1 240848Z 23006KT 11/02 A2993 RMK A01 T01100023  RH  055%=      5-min Rain = 0
KES1 240849Z 23006KT 11/02 A2993 RMK A01 T01100023  RH  055%=      5-min Rain = 0
KES1 240850Z 23006KT 11/02 A2993 RMK A01 T01090023  RH  055%=      5-min Rain = 0
KES1 240851Z 23006KT 11/02 A2993 RMK A01 T01080023  RH  056%=      5-min Rain = 0
KES1 240852Z 22006KT 11/02 A2993 RMK A01 T01070023  RH  056%=      5-min Rain = 0
KES1 240853Z 22006KT 11/02 A2993 RMK A01 T01060024  RH  057%=      5-min Rain = 0
KES1 240854Z 21006KT 11/02 A2993 RMK A01 T01050024  RH  057%=      5-min Rain = 0
KES1 240855Z 21007KT 11/02 A2993 RMK A01 T01050024  RH  057%=      5-min Rain = 0
KES1 240856Z 21007KT 11/02 A2993 RMK A01 T01050024  RH  057%=      5-min Rain = 0
KES1 240857Z 21007KT 11/03 A2993 RMK A01 T01050025  RH  057%=      5-min Rain = 0
KES1 240858Z 21006KT 11/02 A2993 RMK A01 T01050024  RH  057%=      5-min Rain = 0
KES1 240859Z 21005KT 11/02 A2993 RMK A01 T01050024  RH  057%=      5-min Rain = 0
KES1 240900Z 21006KT 11/02 A2993 RMK A01 T01050024  RH  057%=      5-min Rain = 0
KES1 240901Z 21005KT 10/02 A2993 RMK A01 T01040023  RH  057%=      5-min Rain = 0
KES1 240902Z 21005KT 10/02 A2993 RMK A01 T01040023  RH  057%=      5-min Rain = 0
KES1 240903Z 21006KT 10/02 A2993 RMK A01 T01040024  RH  057%=      5-min Rain = 0
KES1 240904Z 22006KT 10/02 A2993 RMK A01 T01030024  RH  058%=      5-min Rain = 0
KES1 240905Z 22006KT 10/02 A2993 RMK A01 T01030024  RH  058%=      5-min Rain = 0
KES1 240906Z 22005KT 10/02 A2993 RMK A01 T01030024  RH  058%=      5-min Rain = 0
KES1 240907Z 22006KT 10/02 A2993 RMK A01 T01030024  RH  058%=      5-min Rain = 0
KES1 240908Z 22006KT 10/02 A2993 RMK A01 T01030023  RH  058%=      5-min Rain = 0
KES1 240909Z 22006KT 10/02 A2993 RMK A01 T01030023  RH  058%=      5-min Rain = 0
KES1 240910Z 23006KT 10/02 A2993 RMK A01 T01020023  RH  058%=      5-min Rain = 0
KES1 240911Z 23006KT 10/02 A2993 RMK A01 T01010023  RH  058%=      5-min Rain = 0
KES1 240912Z 23007KT 10/02 A2993 RMK A01 T01000023  RH  059%=      5-min Rain = 0
KES1 240913Z 23007KT 10/02 A2993 RMK A01 T00990023  RH  059%=      5-min Rain = 0
KES1 240914Z 22007KT 10/02 A2993 RMK A01 T00980023  RH  059%=      5-min Rain = 0
KES1 240915Z 22008KT 10/02 A2993 RMK A01 T00980023  RH  060%=      5-min Rain = 0
KES1 240916Z 22008KT 10/02 A2993 RMK A01 T00970023  RH  060%=      5-min Rain = 0
KES1 240917Z 22008KT 10/02 A2993 RMK A01 T00960022  RH  060%=      5-min Rain = 0
KES1 240918Z 22008KT 10/02 A2993 RMK A01 T00960022  RH  060%=      5-min Rain = 0
KES1 240919Z 22008KT 09/02 A2993 RMK A01 T00940022  RH  061%=      5-min Rain = 0
KES1 240920Z 22009KT 09/02 A2994 RMK A01 T00930021  RH  061%=      5-min Rain = 0
KES1 240921Z 22009KT 09/02 A2993 RMK A01 T00930020  RH  060%=      5-min Rain = 0
KES1 240922Z 22008KT 09/02 A2993 RMK A01 T00930019  RH  060%=      5-min Rain = 0
KES1 240923Z 23009KT 09/02 A2993 RMK A01 T00930019  RH  060%=      5-min Rain = 0
KES1 240924Z 23008KT 09/02 A2993 RMK A01 T00930018  RH  059%=      5-min Rain = 0
KES1 240925Z 23008KT 09/02 A2994 RMK A01 T00920016  RH  059%=      5-min Rain = 0
KES1 240926Z 23009KT 09/02 A2994 RMK A01 T00920015  RH  059%=      5-min Rain = 0
KES1 240927Z 23008KT 09/01 A2994 RMK A01 T00920014  RH  058%=      5-min Rain = 0
KES1 240928Z 23008KT 09/02 A2994 RMK A01 T00930015  RH  058%=      5-min Rain = 0
KES1 240929Z 23008KT 09/02 A2994 RMK A01 T00920015  RH  059%=      5-min Rain = 0
KES1 240930Z 23007KT 09/01 A2994 RMK A01 T00910014  RH  059%=      5-min Rain = 0
KES1 240931Z 23007KT 09/01 A2993 RMK A01 T00910014  RH  059%=      5-min Rain = 0
KES1 240932Z 23007KT 09/01 A2994 RMK A01 T00910014  RH  059%=      5-min Rain = 0
KES1 240933Z 23007KT 09/01 A2994 RMK A01 T00900014  RH  059%=      5-min Rain = 0
KES1 240934Z 23008KT 09/01 A2994 RMK A01 T00890014  RH  059%=      5-min Rain = 0
KES1 240935Z 23008KT 09/01 A2994 RMK A01 T00890014  RH  059%=      5-min Rain = 0
KES1 240936Z 23008KT 09/01 A2994 RMK A01 T00880013  RH  059%=      5-min Rain = 0
KES1 240937Z 24007KT 09/01 A2994 RMK A01 T00880013  RH  059%=      5-min Rain = 0
KES1 240938Z 25007KT 09/01 A2994 RMK A01 T00880013  RH  059%=      5-min Rain = 0
KES1 240939Z 25009KT 09/01 A2994 RMK A01 T00880012  RH  059%=      5-min Rain = 0
KES1 240940Z 25007KT 09/01 A2994 RMK A01 T00900012  RH  058%=      5-min Rain = 0
KES1 240941Z 25007KT 09/01 A2994 RMK A01 T00900013  RH  058%=      5-min Rain = 0
KES1 240942Z 25007KT 09/01 A2994 RMK A01 T00890012  RH  059%=      5-min Rain = 0
KES1 240943Z 25007KT 09/01 A2994 RMK A01 T00890012  RH  058%=      5-min Rain = 0
KES1 240944Z 25007KT 09/01 A2994 RMK A01 T00890011  RH  058%=      5-min Rain = 0
KES1 240945Z 25007KT 09/01 A2994 RMK A01 T00890011  RH  058%=      5-min Rain = 0
KES1 240946Z 24007KT 09/01 A2994 RMK A01 T00890011  RH  058%=      5-min Rain = 0
KES1 240947Z 24008KT 09/01 A2994 RMK A01 T00900011  RH  058%=      5-min Rain = 0
KES1 240948Z 24007KT 09/01 A2994 RMK A01 T00890011  RH  058%=      5-min Rain = 0
KES1 240949Z 25007KT 09/01 A2994 RMK A01 T00890011  RH  058%=      5-min Rain = 0
KES1 240950Z 25008KT 09/01 A2994 RMK A01 T00890011  RH  058%=      5-min Rain = 0
KES1 240951Z 25007KT 09/01 A2994 RMK A01 T00900011  RH  058%=      5-min Rain = 0
KES1 240952Z 24006KT 09/01 A2994 RMK A01 T00900012  RH  058%=      5-min Rain = 0
KES1 240953Z 25006KT 09/01 A2994 RMK A01 T00900012  RH  058%=      5-min Rain = 0
KES1 240954Z 25007KT 09/01 A2994 RMK A01 T00900013  RH  058%=      5-min Rain = 0
KES1 240955Z 24007KT 09/01 A2994 RMK A01 T00900014  RH  059%=      5-min Rain = 0
KES1 240956Z 24007KT 09/02 A2994 RMK A01 T00890015  RH  060%=      5-min Rain = 0
KES1 240957Z 25007KT 09/02 A2994 RMK A01 T00900017  RH  060%=      5-min Rain = 0
KES1 240958Z 25006KT 09/02 A2994 RMK A01 T00890017  RH  061%=      5-min Rain = 0
KES1 240959Z 25006KT 09/02 A2994 RMK A01 T00890018  RH  061%=      5-min Rain = 0
KES1 241000Z 25006KT 09/02 A2994 RMK A01 T00880018  RH  061%=      5-min Rain = 0
KES1 241001Z 25006KT 09/02 A2994 RMK A01 T00880019  RH  062%=      5-min Rain = 0
KES1 241002Z 25006KT 09/02 A2994 RMK A01 T00880020  RH  062%=      5-min Rain = 0
KES1 241003Z 25006KT 09/02 A2994 RMK A01 T00870022  RH  063%=      5-min Rain = 0
KES1 241004Z 25006KT 09/02 A2995 RMK A01 T00870023  RH  064%=      5-min Rain = 0
KES1 241005Z 26006KT 09/03 A2995 RMK A01 T00870025  RH  065%=      5-min Rain = 0
KES1 241006Z 26006KT 09/03 A2995 RMK A01 T00870026  RH  065%=      5-min Rain = 0
KES1 241007Z 26005KT 09/03 A2995 RMK A01 T00870027  RH  066%=      5-min Rain = 0
KES1 241008Z 26004KT 09/03 A2995 RMK A01 T00870027  RH  066%=      5-min Rain = 0
KES1 241009Z 24004KT 09/03 A2995 RMK A01 T00870027  RH  066%=      5-min Rain = 0
KES1 241010Z 25003KT 09/03 A2995 RMK A01 T00870027  RH  066%=      5-min Rain = 0
KES1 241011Z 26003KT 09/03 A2995 RMK A01 T00870028  RH  066%=      5-min Rain = 0
KES1 241012Z 26003KT 09/03 A2995 RMK A01 T00870028  RH  066%=      5-min Rain = 0
KES1 241013Z 25002KT 09/03 A2995 RMK A01 T00870028  RH  066%=      5-min Rain = 0
KES1 241014Z 26002KT 09/03 A2995 RMK A01 T00870028  RH  067%=      5-min Rain = 0
KES1 241015Z 27002KT 09/03 A2995 RMK A01 T00870029  RH  067%=      5-min Rain = 0
KES1 241016Z 26002KT 09/03 A2995 RMK A01 T00870029  RH  067%=      5-min Rain = 0
KES1 241017Z 24002KT 09/03 A2995 RMK A01 T00870030  RH  067%=      5-min Rain = 0
KES1 241018Z 24001KT 09/03 A2996 RMK A01 T00880030  RH  067%=      5-min Rain = 0
KES1 241019Z 26001KT 09/03 A2996 RMK A01 T00880031  RH  067%=      5-min Rain = 0
KES1 241020Z 29001KT 09/03 A2996 RMK A01 T00870030  RH  067%=      5-min Rain = 0
KES1 241021Z 31002KT 09/03 A2996 RMK A01 T00870032  RH  068%=      5-min Rain = 0
KES1 241022Z 27003KT 09/03 A2996 RMK A01 T00870034  RH  069%=      5-min Rain = 0
KES1 241023Z 29004KT 09/04 A2996 RMK A01 T00880035  RH  070%=      5-min Rain = 0
KES1 241024Z 33002KT 09/04 A2996 RMK A01 T00890036  RH  070%=      5-min Rain = 0
KES1 241025Z 31002KT 09/04 A2996 RMK A01 T00890036  RH  069%=      5-min Rain = 0
KES1 241026Z 29005KT 09/04 A2996 RMK A01 T00890036  RH  069%=      5-min Rain = 0
KES1 241027Z 30003KT 09/04 A2996 RMK A01 T00890036  RH  070%=      5-min Rain = 0
KES1 241028Z 29004KT 09/04 A2996 RMK A01 T00870036  RH  070%=      5-min Rain = 0
KES1 241029Z 29004KT 09/04 A2996 RMK A01 T00850036  RH  071%=      5-min Rain = 0
KES1 241030Z 28004KT 08/04 A2996 RMK A01 T00840036  RH  072%=      5-min Rain = 0
KES1 241031Z 28003KT 08/04 A2997 RMK A01 T00820036  RH  073%=      5-min Rain = 0
KES1 241032Z 28003KT 08/04 A2997 RMK A01 T00810036  RH  073%=      5-min Rain = 0
KES1 241033Z 29002KT 08/04 A2997 RMK A01 T00800037  RH  074%=      5-min Rain = 0
KES1 241034Z 30002KT 08/04 A2997 RMK A01 T00790036  RH  074%=      5-min Rain = 0
KES1 241035Z 34001KT 08/04 A2997 RMK A01 T00790036  RH  075%=      5-min Rain = 0
KES1 241036Z 29002KT 08/04 A2997 RMK A01 T00780036  RH  075%=      5-min Rain = 0
KES1 241037Z 31002KT 08/04 A2997 RMK A01 T00770037  RH  075%=      5-min Rain = 0
KES1 241038Z 33002KT 08/04 A2997 RMK A01 T00770037  RH  076%=      5-min Rain = 0
KES1 241039Z 35003KT 08/04 A2997 RMK A01 T00760037  RH  076%=      5-min Rain = 0
KES1 241040Z 00004KT 08/04 A2997 RMK A01 T00770038  RH  077%=      5-min Rain = 0
KES1 241041Z 34003KT 08/04 A2997 RMK A01 T00760038  RH  077%=      5-min Rain = 0
KES1 241042Z 36003KT 08/04 A2997 RMK A01 T00770039  RH  077%=      5-min Rain = 0
KES1 241043Z 36002KT 08/04 A2997 RMK A01 T00760039  RH  077%=      5-min Rain = 0
KES1 241044Z 35002KT 08/04 A2998 RMK A01 T00760039  RH  077%=      5-min Rain = 0
KES1 241045Z 34003KT 08/04 A2997 RMK A01 T00750039  RH  078%=      5-min Rain = 0
KES1 241046Z 31000KT 08/04 A2997 RMK A01 T00750040  RH  078%=      5-min Rain = 0
KES1 241047Z 29001KT 08/04 A2997 RMK A01 T00750040  RH  078%=      5-min Rain = 0
KES1 241048Z 29002KT 08/04 A2997 RMK A01 T00750040  RH  078%=      5-min Rain = 0
KES1 241049Z 30002KT 08/04 A2997 RMK A01 T00750041  RH  079%=      5-min Rain = 0
KES1 241050Z 28003KT 08/04 A2997 RMK A01 T00750041  RH  079%=      5-min Rain = 0
KES1 241051Z 29003KT 08/04 A2997 RMK A01 T00750041  RH  079%=      5-min Rain = 0
KES1 241052Z 31003KT 08/04 A2997 RMK A01 T00750041  RH  079%=      5-min Rain = 0
KES1 241053Z 27001KT 08/04 A2997 RMK A01 T00760042  RH  079%=      5-min Rain = 0
KES1 241054Z 25002KT 08/04 A2997 RMK A01 T00760043  RH  080%=      5-min Rain = 0
KES1 241055Z 24002KT 08/04 A2997 RMK A01 T00770044  RH  080%=      5-min Rain = 0
KES1 241056Z 29001KT 08/04 A2997 RMK A01 T00780044  RH  079%=      5-min Rain = 0
KES1 241057Z 32002KT 08/04 A2997 RMK A01 T00790044  RH  079%=      5-min Rain = 0
KES1 241058Z 33004KT 08/04 A2997 RMK A01 T00790044  RH  078%=      5-min Rain = 0
KES1 241059Z 30004KT 08/04 A2997 RMK A01 T00800044  RH  078%=      5-min Rain = 0
KES1 241100Z 30003KT 08/04 A2997 RMK A01 T00800044  RH  078%=      5-min Rain = 0
KES1 241101Z 27003KT 08/04 A2997 RMK A01 T00810044  RH  078%=      5-min Rain = 0
KES1 241102Z 31004KT 08/04 A2997 RMK A01 T00800043  RH  077%=      5-min Rain = 0
KES1 241103Z 30006KT 08/04 A2997 RMK A01 T00800043  RH  078%=      5-min Rain = 0
KES1 241104Z 31008KT 08/04 A2997 RMK A01 T00790044  RH  078%=      5-min Rain = 0
KES1 241105Z 31007KT 08/05 A2997 RMK A01 T00810045  RH  078%=      5-min Rain = 0
KES1 241106Z 31008KT 08/04 A2997 RMK A01 T00810044  RH  078%=      5-min Rain = 0
KES1 241107Z 31008KT 08/04 A2997 RMK A01 T00810044  RH  077%=      5-min Rain = 0
KES1 241108Z 31008KT 08/04 A2997 RMK A01 T00830044  RH  077%=      5-min Rain = 0
KES1 241109Z 31009KT 09/04 A2997 RMK A01 T00850044  RH  076%=      5-min Rain = 0
KES1 241110Z 31007KT 09/05 A2997 RMK A01 T00890045  RH  074%=      5-min Rain = 0
KES1 241111Z 32008KT 09/04 A2997 RMK A01 T00900044  RH  073%=      5-min Rain = 0
KES1 241112Z 31008KT 09/04 A2997 RMK A01 T00900044  RH  073%=      5-min Rain = 0
KES1 241113Z 32007KT 09/04 A2997 RMK A01 T00890044  RH  073%=      5-min Rain = 0
KES1 241114Z 32008KT 09/04 A2997 RMK A01 T00890044  RH  073%=      5-min Rain = 0
KES1 241115Z 31008KT 09/05 A2998 RMK A01 T00910045  RH  073%=      5-min Rain = 0
KES1 241116Z 32009KT 09/04 A2998 RMK A01 T00920044  RH  072%=      5-min Rain = 0
KES1 241117Z 31009KT 09/04 A2998 RMK A01 T00890043  RH  073%=      5-min Rain = 0
KES1 241118Z 31010KT 09/04 A2998 RMK A01 T00870043  RH  074%=      5-min Rain = 0
KES1 241119Z 31009KT 09/04 A2998 RMK A01 T00870043  RH  074%=      5-min Rain = 0
KES1 241120Z 31008KT 09/04 A2998 RMK A01 T00860043  RH  074%=      5-min Rain = 0
KES1 241121Z 30008KT 08/04 A2998 RMK A01 T00840042  RH  075%=      5-min Rain = 0
KES1 241122Z 30008KT 08/04 A2998 RMK A01 T00830042  RH  076%=      5-min Rain = 0
KES1 241123Z 30007KT 08/04 A2998 RMK A01 T00830042  RH  076%=      5-min Rain = 0
KES1 241124Z 31008KT 08/04 A2998 RMK A01 T00810042  RH  076%=      5-min Rain = 0
KES1 241125Z 31008KT 08/04 A2998 RMK A01 T00800041  RH  077%=      5-min Rain = 0
KES1 241126Z 32008KT 08/04 A2998 RMK A01 T00800042  RH  077%=      5-min Rain = 0
KES1 241127Z 32007KT 08/04 A2998 RMK A01 T00800041  RH  077%=      5-min Rain = 0
KES1 241128Z 32007KT 08/04 A2998 RMK A01 T00800041  RH  077%=      5-min Rain = 0
KES1 241129Z 32006KT 08/04 A2998 RMK A01 T00800041  RH  077%=      5-min Rain = 0
KES1 241130Z 31006KT 08/04 A2998 RMK A01 T00790041  RH  077%=      5-min Rain = 0
KES1 241131Z 31007KT 08/04 A2998 RMK A01 T00780041  RH  077%=      5-min Rain = 0
KES1 241132Z 31007KT 08/04 A2998 RMK A01 T00770041  RH  078%=      5-min Rain = 0
KES1 241133Z 31007KT 08/04 A2998 RMK A01 T00770041  RH  078%=      5-min Rain = 0
KES1 241134Z 31007KT 08/04 A2998 RMK A01 T00760040  RH  078%=      5-min Rain = 0
KES1 241135Z 32007KT 08/04 A2998 RMK A01 T00760041  RH  079%=      5-min Rain = 0
KES1 241136Z 32008KT 08/04 A2998 RMK A01 T00750041  RH  079%=      5-min Rain = 0
KES1 241137Z 32007KT 08/04 A2998 RMK A01 T00750041  RH  079%=      5-min Rain = 0
KES1 241138Z 32007KT 08/04 A2998 RMK A01 T00750041  RH  079%=      5-min Rain = 0
KES1 241139Z 32008KT 08/04 A2998 RMK A01 T00760042  RH  079%=      5-min Rain = 0
KES1 241140Z 32008KT 08/04 A2998 RMK A01 T00770042  RH  078%=      5-min Rain = 0
KES1 241141Z 32008KT 08/04 A2998 RMK A01 T00770042  RH  078%=      5-min Rain = 0
KES1 241142Z 32008KT 08/04 A2998 RMK A01 T00770041  RH  078%=      5-min Rain = 0
KES1 241143Z 32007KT 08/04 A2998 RMK A01 T00770041  RH  078%=      5-min Rain = 0
KES1 241144Z 32007KT 08/04 A2998 RMK A01 T00770041  RH  078%=      5-min Rain = 0
KES1 241145Z 32008KT 08/04 A2998 RMK A01 T00770041  RH  078%=      5-min Rain = 0
KES1 241146Z 32008KT 08/04 A2998 RMK A01 T00770041  RH  078%=      5-min Rain = 0
KES1 241147Z 32007KT 08/04 A2999 RMK A01 T00770041  RH  078%=      5-min Rain = 0
KES1 241148Z 32007KT 08/04 A2999 RMK A01 T00770041  RH  078%=      5-min Rain = 0
KES1 241149Z 32008KT 08/04 A2999 RMK A01 T00760041  RH  078%=      5-min Rain = 0
KES1 241150Z 31007KT 08/04 A2999 RMK A01 T00760041  RH  079%=      5-min Rain = 0
KES1 241151Z 32007KT 08/04 A2999 RMK A01 T00760041  RH  079%=      5-min Rain = 0
KES1 241152Z 32008KT 08/04 A2999 RMK A01 T00750041  RH  079%=      5-min Rain = 0
KES1 241153Z 32008KT 08/04 A2999 RMK A01 T00750041  RH  079%=      5-min Rain = 0
KES1 241154Z 32008KT 08/04 A2999 RMK A01 T00750041  RH  079%=      5-min Rain = 0
KES1 241155Z 32008KT 08/04 A2999 RMK A01 T00750041  RH  079%=      5-min Rain = 0
KES1 241156Z 32008KT 08/04 A2999 RMK A01 T00750041  RH  079%=      5-min Rain = 0
KES1 241157Z 32008KT 08/04 A2999 RMK A01 T00750041  RH  079%=      5-min Rain = 0
KES1 241158Z 32009KT 08/04 A2999 RMK A01 T00750041  RH  079%=      5-min Rain = 0
KES1 241159Z 32009KT 08/04 A2999 RMK A01 T00760042  RH  079%=      5-min Rain = 0
KES1 241200Z 32009KT 08/04 A2999 RMK A01 T00760041  RH  079%=      5-min Rain = 0
KES1 241201Z 32009KT 08/04 A2999 RMK A01 T00760041  RH  079%=      5-min Rain = 0
KES1 241202Z 32009KT 08/04 A2999 RMK A01 T00750041  RH  079%=      5-min Rain = 0
KES1 241203Z 32009KT 08/04 A2999 RMK A01 T00750041  RH  079%=      5-min Rain = 0
KES1 241204Z 32009KT 08/04 A30 RMK A01 T00750042  RH  079%=      5-min Rain = 0
KES1 241205Z 32008KT 08/04 A30 RMK A01 T00750042  RH  079%=      5-min Rain = 0
KES1 241206Z 32009KT 07/04 A30 RMK A01 T00740041  RH  080%=      5-min Rain = 0
KES1 241207Z 32008KT 07/04 A30 RMK A01 T00740042  RH  080%=      5-min Rain = 0
KES1 241208Z 32007KT 07/04 A30 RMK A01 T00740042  RH  080%=      5-min Rain = 0
KES1 241209Z 32008KT 07/04 A30 RMK A01 T00740042  RH  080%=      5-min Rain = 0
KES1 241210Z 32008KT 07/04 A30 RMK A01 T00740042  RH  080%=      5-min Rain = 0
KES1 241211Z 32008KT 07/04 A30 RMK A01 T00740042  RH  080%=      5-min Rain = 0
KES1 241212Z 32007KT 08/04 A30 RMK A01 T00750042  RH  080%=      5-min Rain = 0
KES1 241213Z 32008KT 08/04 A30 RMK A01 T00750042  RH  080%=      5-min Rain = 0
KES1 241214Z 32008KT 08/04 A30 RMK A01 T00750042  RH  080%=      5-min Rain = 0
KES1 241215Z 33008KT 08/04 A30 RMK A01 T00750042  RH  080%=      5-min Rain = 0
KES1 241216Z 32009KT 08/04 A30 RMK A01 T00750042  RH  080%=      5-min Rain = 0
KES1 241217Z 33009KT 08/04 A30 RMK A01 T00750043  RH  080%=      5-min Rain = 0
KES1 241218Z 33009KT 08/04 A30 RMK A01 T00750043  RH  080%=      5-min Rain = 0
KES1 241219Z 33008KT 08/04 A30 RMK A01 T00760043  RH  080%=      5-min Rain = 0
KES1 241220Z 33008KT 08/04 A30 RMK A01 T00760043  RH  080%=      5-min Rain = 0
KES1 241221Z 33008KT 08/04 A30 RMK A01 T00760043  RH  080%=      5-min Rain = 0
KES1 241222Z 33009KT 08/04 A30 RMK A01 T00760043  RH  080%=      5-min Rain = 0
KES1 241223Z 33008KT 08/04 A30 RMK A01 T00760043  RH  080%=      5-min Rain = 0
KES1 241224Z 33008KT 08/04 A3001 RMK A01 T00760043  RH  080%=      5-min Rain = 0
KES1 241225Z 33007KT 08/04 A3001 RMK A01 T00760043  RH  079%=      5-min Rain = 0
KES1 241226Z 33008KT 08/04 A3001 RMK A01 T00760043  RH  080%=      5-min Rain = 0
KES1 241227Z 33007KT 08/04 A3001 RMK A01 T00760043  RH  080%=      5-min Rain = 0
KES1 241228Z 33007KT 08/04 A3001 RMK A01 T00760043  RH  080%=      5-min Rain = 0
KES1 241229Z 33006KT 08/04 A3001 RMK A01 T00750043  RH  080%=      5-min Rain = 0
KES1 241230Z 34006KT 08/04 A3001 RMK A01 T00750043  RH  080%=      5-min Rain = 0
KES1 241231Z 33007KT 08/04 A3001 RMK A01 T00750043  RH  080%=      5-min Rain = 0
KES1 241232Z 34006KT 07/04 A3001 RMK A01 T00740043  RH  080%=      5-min Rain = 0
KES1 241233Z 33006KT 07/04 A3001 RMK A01 T00740043  RH  080%=      5-min Rain = 0
KES1 241234Z 34007KT 07/04 A3001 RMK A01 T00740043  RH  080%=      5-min Rain = 0
KES1 241235Z 34007KT 07/04 A3001 RMK A01 T00740043  RH  080%=      5-min Rain = 0
KES1 241236Z 34007KT 08/04 A3001 RMK A01 T00750043  RH  080%=      5-min Rain = 0
KES1 241237Z 34007KT 08/04 A3001 RMK A01 T00750043  RH  080%=      5-min Rain = 0
KES1 241238Z 34006KT 08/04 A3001 RMK A01 T00750043  RH  080%=      5-min Rain = 0
KES1 241239Z 33007KT 08/04 A3001 RMK A01 T00760043  RH  080%=      5-min Rain = 0
KES1 241240Z 33007KT 08/04 A3001 RMK A01 T00760043  RH  080%=      5-min Rain = 0
KES1 241241Z 34007KT 08/04 A3001 RMK A01 T00760044  RH  080%=      5-min Rain = 0
KES1 241242Z 34007KT 08/04 A3001 RMK A01 T00760043  RH  079%=      5-min Rain = 0
KES1 241243Z 33008KT 08/04 A3001 RMK A01 T00770044  RH  080%=      5-min Rain = 0
KES1 241244Z 33008KT 08/04 A3001 RMK A01 T00770044  RH  079%=      5-min Rain = 0
KES1 241245Z 34008KT 08/04 A3001 RMK A01 T00780044  RH  079%=      5-min Rain = 0
KES1 241246Z 33007KT 08/04 A3002 RMK A01 T00770043  RH  079%=      5-min Rain = 0
KES1 241247Z 33008KT 08/04 A3002 RMK A01 T00770043  RH  079%=      5-min Rain = 0
KES1 241248Z 33007KT 08/04 A3002 RMK A01 T00770043  RH  079%=      5-min Rain = 0
KES1 241249Z 33008KT 08/04 A3002 RMK A01 T00770043  RH  079%=      5-min Rain = 0
KES1 241250Z 33008KT 08/04 A3002 RMK A01 T00770043  RH  079%=      5-min Rain = 0
KES1 241251Z 33007KT 08/04 A3002 RMK A01 T00770043  RH  079%=      5-min Rain = 0
KES1 241252Z 33007KT 08/04 A3002 RMK A01 T00770043  RH  079%=      5-min Rain = 0
KES1 241253Z 33007KT 08/04 A3002 RMK A01 T00780043  RH  079%=      5-min Rain = 0
KES1 241254Z 33007KT 08/04 A3002 RMK A01 T00770043  RH  079%=      5-min Rain = 0
KES1 241255Z 33007KT 08/04 A3002 RMK A01 T00780043  RH  079%=      5-min Rain = 0
KES1 241256Z 34007KT 08/04 A3002 RMK A01 T00780044  RH  079%=      5-min Rain = 0
KES1 241257Z 33006KT 08/04 A3002 RMK A01 T00780043  RH  079%=      5-min Rain = 0
KES1 241258Z 34006KT 08/04 A3002 RMK A01 T00780043  RH  079%=      5-min Rain = 0
KES1 241259Z 33006KT 08/04 A3003 RMK A01 T00780043  RH  079%=      5-min Rain = 0
KES1 241300Z 33005KT 08/04 A3003 RMK A01 T00790044  RH  079%=      5-min Rain = 0
KES1 241301Z 33005KT 08/04 A3003 RMK A01 T00780044  RH  079%=      5-min Rain = 0
KES1 241302Z 33006KT 08/04 A3003 RMK A01 T00780044  RH  079%=      5-min Rain = 0
KES1 241303Z 33006KT 08/04 A3003 RMK A01 T00790044  RH  079%=      5-min Rain = 0
KES1 241304Z 33005KT 08/04 A3003 RMK A01 T00790044  RH  079%=      5-min Rain = 0
KES1 241305Z 33006KT 08/04 A3003 RMK A01 T00790044  RH  079%=      5-min Rain = 0
KES1 241306Z 33005KT 08/04 A3003 RMK A01 T00790044  RH  078%=      5-min Rain = 0
KES1 241307Z 33005KT 08/04 A3003 RMK A01 T00800044  RH  078%=      5-min Rain = 0
KES1 241308Z 32005KT 08/05 A3003 RMK A01 T00800045  RH  078%=      5-min Rain = 0
KES1 241309Z 33005KT 08/05 A3003 RMK A01 T00800045  RH  079%=      5-min Rain = 0
KES1 241310Z 33006KT 08/05 A3003 RMK A01 T00810045  RH  078%=      5-min Rain = 0
KES1 241311Z 33005KT 08/05 A3003 RMK A01 T00810045  RH  078%=      5-min Rain = 0
KES1 241312Z 32005KT 08/05 A3003 RMK A01 T00810045  RH  078%=      5-min Rain = 0
KES1 241313Z 32005KT 08/05 A3003 RMK A01 T00820046  RH  078%=      5-min Rain = 0
KES1 241314Z 32005KT 08/05 A3003 RMK A01 T00820046  RH  078%=      5-min Rain = 0
KES1 241315Z 32005KT 08/05 A3003 RMK A01 T00820046  RH  078%=      5-min Rain = 0
KES1 241316Z 32005KT 08/05 A3003 RMK A01 T00820046  RH  078%=      5-min Rain = 0
KES1 241317Z 32005KT 08/05 A3003 RMK A01 T00830046  RH  078%=      5-min Rain = 0
KES1 241318Z 32005KT 08/05 A3003 RMK A01 T00830046  RH  078%=      5-min Rain = 0
KES1 241319Z 32005KT 08/05 A3003 RMK A01 T00830046  RH  078%=      5-min Rain = 0
KES1 241320Z 31005KT 08/05 A3003 RMK A01 T00830046  RH  078%=      5-min Rain = 0
KES1 241321Z 32005KT 08/05 A3003 RMK A01 T00820045  RH  078%=      5-min Rain = 0
KES1 241322Z 31005KT 08/05 A3003 RMK A01 T00830046  RH  078%=      5-min Rain = 0
KES1 241323Z 31005KT 08/05 A3003 RMK A01 T00830046  RH  078%=      5-min Rain = 0
KES1 241324Z 31005KT 08/05 A3003 RMK A01 T00840047  RH  077%=      5-min Rain = 0
KES1 241325Z 31006KT 08/05 A3003 RMK A01 T00840047  RH  077%=      5-min Rain = 0
KES1 241326Z 31006KT 09/05 A3003 RMK A01 T00850047  RH  077%=      5-min Rain = 0
KES1 241327Z 31006KT 09/05 A3003 RMK A01 T00850047  RH  077%=      5-min Rain = 0
KES1 241328Z 31005KT 09/05 A3004 RMK A01 T00860048  RH  077%=      5-min Rain = 0
KES1 241329Z 31004KT 09/05 A3004 RMK A01 T00850047  RH  077%=      5-min Rain = 0
KES1 241330Z 31004KT 09/05 A3004 RMK A01 T00850047  RH  077%=      5-min Rain = 0
KES1 241331Z 31003KT 09/05 A3004 RMK A01 T00850047  RH  077%=      5-min Rain = 0
KES1 241332Z 31002KT 09/05 A3004 RMK A01 T00860048  RH  077%=      5-min Rain = 0
KES1 241333Z 30002KT 09/05 A3004 RMK A01 T00870049  RH  077%=      5-min Rain = 0
KES1 241334Z 28002KT 09/05 A3005 RMK A01 T00870048  RH  077%=      5-min Rain = 0
KES1 241335Z 29002KT 09/05 A3005 RMK A01 T00880049  RH  077%=      5-min Rain = 0
KES1 241336Z 31001KT 09/05 A3005 RMK A01 T00880049  RH  076%=      5-min Rain = 0
KES1 241337Z 32001KT 09/05 A3005 RMK A01 T00890049  RH  076%=      5-min Rain = 0
KES1 241338Z 30002KT 09/05 A3005 RMK A01 T00900048  RH  075%=      5-min Rain = 0
KES1 241339Z 30001KT 09/05 A3005 RMK A01 T00910049  RH  075%=      5-min Rain = 0
KES1 241340Z 30003KT 09/05 A3005 RMK A01 T00910048  RH  074%=      5-min Rain = 0
KES1 241341Z 29003KT 09/05 A3005 RMK A01 T00920049  RH  074%=      5-min Rain = 0
KES1 241342Z 31005KT 09/05 A3005 RMK A01 T00930050  RH  074%=      5-min Rain = 0
KES1 241343Z 31005KT 09/05 A3005 RMK A01 T00940050  RH  074%=      5-min Rain = 0
KES1 241344Z 31005KT 10/05 A3005 RMK A01 T00950050  RH  073%=      5-min Rain = 0
KES1 241345Z 31007KT 10/05 A3005 RMK A01 T00960050  RH  073%=      5-min Rain = 0
KES1 241346Z 31007KT 10/05 A3005 RMK A01 T00960050  RH  073%=      5-min Rain = 0
KES1 241347Z 32008KT 10/05 A3005 RMK A01 T00970050  RH  073%=      5-min Rain = 0
KES1 241348Z 31008KT 10/05 A3005 RMK A01 T00980050  RH  072%=      5-min Rain = 0
KES1 241349Z 32008KT 10/05 A3005 RMK A01 T00980051  RH  072%=      5-min Rain = 0
KES1 241350Z 32007KT 10/05 A3005 RMK A01 T00990051  RH  072%=      5-min Rain = 0
KES1 241351Z 32008KT 10/05 A3005 RMK A01 T01000052  RH  072%=      5-min Rain = 0
KES1 241352Z 32009KT 10/05 A3005 RMK A01 T01000051  RH  071%=      5-min Rain = 0
KES1 241353Z 32008KT 10/05 A3005 RMK A01 T01010051  RH  071%=      5-min Rain = 0
KES1 241354Z 32009KT 10/05 A3005 RMK A01 T01010051  RH  071%=      5-min Rain = 0
KES1 241355Z 32008KT 10/05 A3005 RMK A01 T01020051  RH  071%=      5-min Rain = 0
KES1 241356Z 31009KT 10/05 A3005 RMK A01 T01020053  RH  071%=      5-min Rain = 0
KES1 241357Z 32008KT 10/05 A3005 RMK A01 T01030052  RH  070%=      5-min Rain = 0
KES1 241358Z 32008KT 10/05 A3005 RMK A01 T01040052  RH  070%=      5-min Rain = 0
KES1 241359Z 32007KT 10/05 A3005 RMK A01 T01040050  RH  069%=      5-min Rain = 0
KES1 241400Z 31007KT 10/05 A3006 RMK A01 T01040052  RH  070%=      5-min Rain = 0
KES1 241401Z 32008KT 11/05 A3006 RMK A01 T01050052  RH  069%=      5-min Rain = 0
KES1 241402Z 32008KT 11/05 A3006 RMK A01 T01050050  RH  069%=      5-min Rain = 0
KES1 241403Z 32008KT 11/05 A3006 RMK A01 T01050050  RH  069%=      5-min Rain = 0
KES1 241404Z 32008KT 11/05 A3006 RMK A01 T01050051  RH  069%=      5-min Rain = 0
KES1 241405Z 32008KT 11/05 A3006 RMK A01 T01050052  RH  070%=      5-min Rain = 0
KES1 241406Z 32009KT 11/05 A3006 RMK A01 T01050050  RH  069%=      5-min Rain = 0
KES1 241407Z 32010KT 11/05 A3006 RMK A01 T01050050  RH  069%=      5-min Rain = 0
KES1 241408Z 32009KT 11/05 A3006 RMK A01 T01050050  RH  069%=      5-min Rain = 0
KES1 241409Z 33008KT 11/05 A3006 RMK A01 T01060051  RH  069%=      5-min Rain = 0
KES1 241410Z 33010KT 11/05 A3005 RMK A01 T01060051  RH  069%=      5-min Rain = 0
KES1 241411Z 32010KT 11/05 A3005 RMK A01 T01050051  RH  069%=      5-min Rain = 0
KES1 241412Z 33010KT 11/05 A3005 RMK A01 T01060051  RH  069%=      5-min Rain = 0
KES1 241413Z 33009KT 11/05 A3005 RMK A01 T01060050  RH  069%=      5-min Rain = 0
KES1 241414Z 32008KT 11/05 A3006 RMK A01 T01060051  RH  069%=      5-min Rain = 0
KES1 241415Z 33008KT 11/05 A3006 RMK A01 T01070051  RH  069%=      5-min Rain = 0
KES1 241416Z 33007KT 11/05 A3006 RMK A01 T01070051  RH  068%=      5-min Rain = 0
KES1 241417Z 33006KT 11/05 A3006 RMK A01 T01080053  RH  069%=      5-min Rain = 0
KES1 241418Z 33007KT 11/05 A3006 RMK A01 T01090053  RH  068%=      5-min Rain = 0
KES1 241419Z 32008KT 11/05 A3006 RMK A01 T01100053  RH  068%=      5-min Rain = 0
KES1 241420Z 32007KT 11/05 A3006 RMK A01 T01110053  RH  067%=      5-min Rain = 0
KES1 241421Z 33006KT 11/05 A3007 RMK A01 T01120052  RH  067%=      5-min Rain = 0
KES1 241422Z 34006KT 11/05 A3007 RMK A01 T01120054  RH  068%=      5-min Rain = 0
KES1 241423Z 34007KT 11/05 A3007 RMK A01 T01130053  RH  067%=      5-min Rain = 0
KES1 241424Z 34009KT 11/05 A3007 RMK A01 T01130052  RH  066%=      5-min Rain = 0
KES1 241425Z 34007KT 11/05 A3006 RMK A01 T01120051  RH  066%=      5-min Rain = 0
KES1 241426Z 34007KT 11/05 A3006 RMK A01 T01120052  RH  067%=      5-min Rain = 0
KES1 241427Z 34007KT 11/06 A3006 RMK A01 T01130055  RH  067%=      5-min Rain = 0
KES1 241428Z 35007KT 12/05 A3006 RMK A01 T01150053  RH  066%=      5-min Rain = 0
KES1 241429Z 34007KT 12/05 A3007 RMK A01 T01150053  RH  065%=      5-min Rain = 0
KES1 241430Z 35007KT 12/05 A3007 RMK A01 T01150053  RH  065%=      5-min Rain = 0
KES1 241431Z 35008KT 12/05 A3007 RMK A01 T01150052  RH  065%=      5-min Rain = 0
KES1 241432Z 00007KT 12/05 A3007 RMK A01 T01160053  RH  065%=      5-min Rain = 0
KES1 241433Z 00006KT 12/05 A3007 RMK A01 T01170052  RH  064%=      5-min Rain = 0
KES1 241434Z 36006KT 12/05 A3007 RMK A01 T01180054  RH  065%=      5-min Rain = 0
KES1 241435Z 36007KT 12/06 A3007 RMK A01 T01200055  RH  065%=      5-min Rain = 0
KES1 241436Z 01006KT 12/06 A3007 RMK A01 T01200055  RH  064%=      5-min Rain = 0
KES1 241437Z 35007KT 12/06 A3007 RMK A01 T01230057  RH  064%=      5-min Rain = 0
KES1 241438Z 00009KT 12/05 A3007 RMK A01 T01240054  RH  062%=      5-min Rain = 0
KES1 241439Z 35008KT 12/05 A3007 RMK A01 T01220052  RH  062%=      5-min Rain = 0
KES1 241440Z 00008KT 12/05 A3007 RMK A01 T01210053  RH  063%=      5-min Rain = 0
KES1 241441Z 35010KT 12/05 A3007 RMK A01 T01210052  RH  063%=      5-min Rain = 0
KES1 241442Z 35008KT 12/05 A3007 RMK A01 T01200052  RH  063%=      5-min Rain = 0
KES1 241443Z 36008KT 12/05 A3007 RMK A01 T01200053  RH  063%=      5-min Rain = 0
KES1 241444Z 01008KT 12/06 A3007 RMK A01 T01210056  RH  064%=      5-min Rain = 0
KES1 241445Z 00010KT 12/06 A3007 RMK A01 T01240055  RH  063%=      5-min Rain = 0
KES1 241446Z 36010KT 12/05 A3007 RMK A01 T01240054  RH  062%=      5-min Rain = 0
KES1 241447Z 35011KT 12/05 A3007 RMK A01 T01240052  RH  062%=      5-min Rain = 0
KES1 241448Z 00011KT 12/05 A3007 RMK A01 T01230052  RH  062%=      5-min Rain = 0
KES1 241449Z 01009KT 12/05 A3007 RMK A01 T01230052  RH  062%=      5-min Rain = 0
KES1 241450Z 36011KT 13/05 A3007 RMK A01 T01250053  RH  062%=      5-min Rain = 0
KES1 241451Z 36011KT 13/05 A3007 RMK A01 T01260053  RH  061%=      5-min Rain = 0
KES1 241452Z 00011KT 13/05 A3007 RMK A01 T01260052  RH  061%=      5-min Rain = 0
KES1 241453Z 01010KT 13/05 A3007 RMK A01 T01260053  RH  061%=      5-min Rain = 0
KES1 241454Z 36008KT 13/06 A3007 RMK A01 T01280055  RH  061%=      5-min Rain = 0
KES1 241455Z 00006KT 13/06 A3007 RMK A01 T01290055  RH  061%=      5-min Rain = 0
KES1 241456Z 00011KT 13/05 A3007 RMK A01 T01300054  RH  060%=      5-min Rain = 0
KES1 241457Z 01011KT 13/05 A3007 RMK A01 T01300052  RH  059%=      5-min Rain = 0
KES1 241458Z 01009KT 13/05 A3007 RMK A01 T01290052  RH  059%=      5-min Rain = 0
KES1 241459Z 02009KT 13/05 A3007 RMK A01 T01290052  RH  060%=      5-min Rain = 0
KES1 241500Z 02009KT 13/05 A3007 RMK A01 T01290053  RH  060%=      5-min Rain = 0
KES1 241501Z 36009KT 13/05 A3007 RMK A01 T01300053  RH  059%=      5-min Rain = 0
KES1 241502Z 35008KT 13/05 A3007 RMK A01 T01300052  RH  059%=      5-min Rain = 0
KES1 241503Z 35009KT 13/05 A3007 RMK A01 T01300053  RH  059%=      5-min Rain = 0
KES1 241504Z 35010KT 13/05 A3007 RMK A01 T01310054  RH  060%=      5-min Rain = 0
KES1 241505Z 01007KT 13/06 A3007 RMK A01 T01330056  RH  060%=      5-min Rain = 0
KES1 241506Z 36010KT 14/06 A3007 RMK A01 T01350055  RH  058%=      5-min Rain = 0
KES1 241507Z 35008KT 13/05 A3007 RMK A01 T01340053  RH  058%=      5-min Rain = 0
KES1 241508Z 02009KT 13/05 A3007 RMK A01 T01340054  RH  058%=      5-min Rain = 0
KES1 241509Z 01010KT 13/05 A3007 RMK A01 T01340053  RH  058%=      5-min Rain = 0
KES1 241510Z 03008KT 13/05 A3007 RMK A01 T01340052  RH  058%=      5-min Rain = 0
KES1 241511Z 02009KT 14/05 A3007 RMK A01 T01350053  RH  058%=      5-min Rain = 0
KES1 241512Z 01008KT 14/05 A3007 RMK A01 T01350054  RH  058%=      5-min Rain = 0
KES1 241513Z 01009KT 14/05 A3007 RMK A01 T01360054  RH  058%=      5-min Rain = 0
KES1 241514Z 03008KT 14/06 A3007 RMK A01 T01360055  RH  058%=      5-min Rain = 0
KES1 241515Z 02008KT 14/06 A3007 RMK A01 T01380055  RH  057%=      5-min Rain = 0
KES1 241516Z 00009KT 14/05 A3007 RMK A01 T01390054  RH  057%=      5-min Rain = 0
KES1 241517Z 35010KT 14/05 A3007 RMK A01 T01380053  RH  056%=      5-min Rain = 0
KES1 241518Z 36009KT 14/05 A3007 RMK A01 T01370053  RH  057%=      5-min Rain = 0
KES1 241519Z 00009KT 14/06 A3007 RMK A01 T01370055  RH  058%=      5-min Rain = 0
KES1 241520Z 01009KT 14/06 A3007 RMK A01 T01390055  RH  057%=      5-min Rain = 0
KES1 241521Z 36009KT 14/06 A3007 RMK A01 T01400055  RH  056%=      5-min Rain = 0
KES1 241522Z 35009KT 14/05 A3007 RMK A01 T01390053  RH  056%=      5-min Rain = 0
KES1 241523Z 34009KT 14/05 A3007 RMK A01 T01380054  RH  057%=      5-min Rain = 0
KES1 241524Z 35009KT 14/05 A3007 RMK A01 T01380053  RH  056%=      5-min Rain = 0
KES1 241525Z 01007KT 14/06 A3007 RMK A01 T01380055  RH  057%=      5-min Rain = 0
KES1 241526Z 01008KT 14/06 A3007 RMK A01 T01410056  RH  057%=      5-min Rain = 0
KES1 241527Z 00009KT 14/05 A3007 RMK A01 T01410051  RH  055%=      5-min Rain = 0
KES1 241528Z 01008KT 14/05 A3007 RMK A01 T01390053  RH  056%=      5-min Rain = 0
KES1 241529Z 02007KT 14/05 A3007 RMK A01 T01400053  RH  056%=      5-min Rain = 0
KES1 241530Z 02008KT 14/05 A3007 RMK A01 T01400052  RH  055%=      5-min Rain = 0
KES1 241531Z 03009KT 14/05 A3007 RMK A01 T01410054  RH  056%=      5-min Rain = 0
KES1 241532Z 01008KT 14/06 A3007 RMK A01 T01430055  RH  056%=      5-min Rain = 0
KES1 241533Z 01009KT 15/06 A3007 RMK A01 T01450057  RH  056%=      5-min Rain = 0
KES1 241534Z 01010KT 15/06 A3007 RMK A01 T01470055  RH  054%=      5-min Rain = 0
KES1 241535Z 01008KT 15/05 A3007 RMK A01 T01450053  RH  054%=      5-min Rain = 0
KES1 241536Z 01008KT 14/06 A3007 RMK A01 T01440055  RH  055%=      5-min Rain = 0
KES1 241537Z 01007KT 14/05 A3007 RMK A01 T01440053  RH  054%=      5-min Rain = 0
KES1 241538Z 02009G14KT 14/05 A3007 RMK A01 T01440054  RH  055%=      5-min Rain = 0
KES1 241539Z 00009KT 15/06 A3007 RMK A01 T01450056  RH  055%=      5-min Rain = 0
KES1 241540Z 36011KT 15/06 A3007 RMK A01 T01470055  RH  054%=      5-min Rain = 0
KES1 241541Z 36012KT 15/05 A3007 RMK A01 T01470054  RH  054%=      5-min Rain = 0
KES1 241542Z 36012KT 15/05 A3007 RMK A01 T01460054  RH  054%=      5-min Rain = 0
KES1 241543Z 01009KT 15/05 A3007 RMK A01 T01450053  RH  054%=      5-min Rain = 0
KES1 241544Z 02007KT 15/05 A3007 RMK A01 T01450054  RH  054%=      5-min Rain = 0
KES1 241545Z 01009KT 15/06 A3007 RMK A01 T01480059  RH  055%=      5-min Rain = 0
KES1 241546Z 00010KT 15/06 A3007 RMK A01 T01500055  RH  053%=      5-min Rain = 0
KES1 241547Z 01009KT 15/05 A3007 RMK A01 T01500054  RH  052%=      5-min Rain = 0
KES1 241548Z 01010KT 15/05 A3007 RMK A01 T01510054  RH  052%=      5-min Rain = 0
KES1 241549Z 00009KT 15/05 A3007 RMK A01 T01500054  RH  053%=      5-min Rain = 0
KES1 241550Z 01009KT 15/06 A3007 RMK A01 T01510056  RH  053%=      5-min Rain = 0
KES1 241551Z 02010KT 15/06 A3007 RMK A01 T01520057  RH  053%=      5-min Rain = 0
KES1 241552Z 02008KT 15/06 A3007 RMK A01 T01530056  RH  052%=      5-min Rain = 0
KES1 241553Z 35008KT 15/06 A3007 RMK A01 T01520055  RH  052%=      5-min Rain = 0
KES1 241554Z 35009KT 15/06 A3007 RMK A01 T01510056  RH  053%=      5-min Rain = 0
KES1 241555Z 34009KT 15/05 A3007 RMK A01 T01500054  RH  053%=      5-min Rain = 0
KES1 241556Z 33009KT 15/06 A3007 RMK A01 T01490055  RH  053%=      5-min Rain = 0
KES1 241557Z 35009KT 15/06 A3008 RMK A01 T01500057  RH  054%=      5-min Rain = 0
KES1 241558Z 34007KT 15/06 A3008 RMK A01 T01510055  RH  053%=      5-min Rain = 0
KES1 241559Z 34006KT 15/05 A3008 RMK A01 T01500054  RH  053%=      5-min Rain = 0
KES1 241600Z 32008KT 15/06 A3008 RMK A01 T01490056  RH  054%=      5-min Rain = 0
KES1 241601Z 33008KT 15/06 A3008 RMK A01 T01500058  RH  054%=      5-min Rain = 0
KES1 241602Z 34007KT 15/06 A3008 RMK A01 T01510055  RH  053%=      5-min Rain = 0
KES1 241603Z 34006KT 15/06 A3008 RMK A01 T01500057  RH  054%=      5-min Rain = 0
KES1 241604Z 34004KT 15/06 A3008 RMK A01 T01510056  RH  053%=      5-min Rain = 0
KES1 241605Z 34004KT 15/05 A3008 RMK A01 T01510054  RH  052%=      5-min Rain = 0
KES1 241606Z 33006KT 15/06 A3008 RMK A01 T01510056  RH  053%=      5-min Rain = 0
KES1 241607Z 34007KT 15/06 A3008 RMK A01 T01530061  RH  054%=      5-min Rain = 0
KES1 241608Z 00006KT 16/06 A3008 RMK A01 T01550056  RH  051%=      5-min Rain = 0
KES1 241609Z 33005KT 15/06 A3008 RMK A01 T01540055  RH  052%=      5-min Rain = 0
KES1 241610Z 34007KT 15/06 A3008 RMK A01 T01540056  RH  052%=      5-min Rain = 0
KES1 241611Z 35007KT 15/06 A3008 RMK A01 T01540056  RH  052%=      5-min Rain = 0
KES1 241612Z 36005KT 15/06 A3008 RMK A01 T01530055  RH  052%=      5-min Rain = 0
KES1 241613Z 01002KT 15/05 A3008 RMK A01 T01530054  RH  052%=      5-min Rain = 0
KES1 241614Z 32002KT 15/06 A3008 RMK A01 T01530056  RH  052%=      5-min Rain = 0
KES1 241615Z 34007KT 15/06 A3008 RMK A01 T01540062  RH  054%=      5-min Rain = 0
KES1 241616Z 02006KT 16/06 A3008 RMK A01 T01590059  RH  052%=      5-min Rain = 0
KES1 241617Z 01003KT 16/06 A3008 RMK A01 T01580056  RH  051%=      5-min Rain = 0
KES1 241618Z 36003KT 16/06 A3008 RMK A01 T01590061  RH  052%=      5-min Rain = 0
KES1 241619Z 33004KT 16/06 A3008 RMK A01 T01610061  RH  051%=      5-min Rain = 0
KES1 241620Z 34004KT 16/06 A3008 RMK A01 T01610056  RH  050%=      5-min Rain = 0
KES1 241621Z 33004KT 16/06 A3008 RMK A01 T01600056  RH  050%=      5-min Rain = 0
KES1 241622Z 00003KT 16/06 A3008 RMK A01 T01580055  RH  050%=      5-min Rain = 0
KES1 241623Z 36005KT 16/06 A3008 RMK A01 T01580057  RH  051%=      5-min Rain = 0
KES1 241624Z 02006KT 16/06 A3008 RMK A01 T01610055  RH  049%=      5-min Rain = 0
KES1 241625Z 02005KT 16/06 A3008 RMK A01 T01620055  RH  049%=      5-min Rain = 0
KES1 241626Z 00003KT 16/05 A3008 RMK A01 T01630052  RH  048%=      5-min Rain = 0
KES1 241627Z 05004KT 16/05 A3008 RMK A01 T01620053  RH  048%=      5-min Rain = 0
KES1 241628Z 07003KT 16/06 A3008 RMK A01 T01640056  RH  049%=      5-min Rain = 0
KES1 241629Z 03002KT 17/06 A3008 RMK A01 T01660055  RH  048%=      5-min Rain = 0
KES1 241630Z 34003KT 17/06 A3008 RMK A01 T01660058  RH  049%=      5-min Rain = 0
KES1 241631Z 34001KT 17/06 A3008 RMK A01 T01660056  RH  048%=      5-min Rain = 0
KES1 241632Z 01003KT 17/06 A3008 RMK A01 T01670059  RH  049%=      5-min Rain = 0
KES1 241633Z 36003KT 17/06 A3008 RMK A01 T01680058  RH  048%=      5-min Rain = 0
KES1 241634Z 00003KT 17/06 A3008 RMK A01 T01690061  RH  049%=      5-min Rain = 0
KES1 241635Z 04003KT 17/06 A3008 RMK A01 T01690061  RH  049%=      5-min Rain = 0
KES1 241636Z 02003KT 17/06 A3008 RMK A01 T01710059  RH  048%=      5-min Rain = 0
KES1 241637Z 01006KT 17/06 A3008 RMK A01 T01710056  RH  047%=      5-min Rain = 0
KES1 241638Z 01004KT 17/06 A3008 RMK A01 T01700057  RH  047%=      5-min Rain = 0
KES1 241639Z 00002KT 17/05 A3008 RMK A01 T01700053  RH  046%=      5-min Rain = 0
KES1 241640Z 36001KT 17/05 A3008 RMK A01 T01670050  RH  046%=      5-min Rain = 0
KES1 241641Z 02002KT 17/05 A3008 RMK A01 T01660052  RH  047%=      5-min Rain = 0
KES1 241642Z 01005KT 17/05 A3008 RMK A01 T01660054  RH  047%=      5-min Rain = 0
KES1 241643Z 36005KT 17/05 A3008 RMK A01 T01680052  RH  046%=      5-min Rain = 0
KES1 241644Z 33003KT 17/05 A3008 RMK A01 T01680052  RH  046%=      5-min Rain = 0
KES1 241645Z 33004KT 17/06 A3008 RMK A01 T01680055  RH  047%=      5-min Rain = 0
KES1 241646Z 34004KT 17/06 A3008 RMK A01 T01680055  RH  047%=      5-min Rain = 0
KES1 241647Z 33003KT 17/06 A3008 RMK A01 T01680057  RH  048%=      5-min Rain = 0
KES1 241648Z 33004KT 17/06 A3008 RMK A01 T01690057  RH  047%=      5-min Rain = 0
KES1 241649Z 33005KT 17/06 A3008 RMK A01 T01710062  RH  048%=      5-min Rain = 0
KES1 241650Z 35005KT 17/06 A3008 RMK A01 T01740059  RH  047%=      5-min Rain = 0
KES1 241651Z 35002KT 17/05 A3008 RMK A01 T01740054  RH  045%=      5-min Rain = 0
KES1 241652Z 01004KT 17/06 A3008 RMK A01 T01730059  RH  047%=      5-min Rain = 0
KES1 241653Z 35006KT 17/06 A3008 RMK A01 T01730057  RH  046%=      5-min Rain = 0
KES1 241654Z 35004KT 17/06 A3008 RMK A01 T01730055  RH  046%=      5-min Rain = 0
KES1 241655Z 35005KT 17/06 A3008 RMK A01 T01720055  RH  046%=      5-min Rain = 0
KES1 241656Z 35003KT 17/06 A3008 RMK A01 T01710056  RH  047%=      5-min Rain = 0
KES1 241657Z 02004KT 17/06 A3008 RMK A01 T01710057  RH  047%=      5-min Rain = 0
KES1 241658Z 05005KT 18/06 A3008 RMK A01 T01750061  RH  047%=      5-min Rain = 0
KES1 241659Z 08003KT 18/06 A3008 RMK A01 T01790058  RH  045%=      5-min Rain = 0
KES1 241700Z 06005KT 18/06 A3008 RMK A01 T01790058  RH  045%=      5-min Rain = 0
KES1 241701Z 03002KT 18/06 A3008 RMK A01 T01810056  RH  044%=      5-min Rain = 0
KES1 241702Z 01001KT 18/05 A3008 RMK A01 T01790054  RH  044%=      5-min Rain = 0
KES1 241703Z 08002KT 18/06 A3008 RMK A01 T01780059  RH  046%=      5-min Rain = 0
KES1 241704Z 08002KT 18/06 A3008 RMK A01 T01800064  RH  047%=      5-min Rain = 0
KES1 241705Z 03005KT 18/06 A3008 RMK A01 T01830062  RH  045%=      5-min Rain = 0
KES1 241706Z 02005KT 18/06 A3008 RMK A01 T01840060  RH  044%=      5-min Rain = 0
KES1 241707Z 02003KT 18/06 A3008 RMK A01 T01830059  RH  044%=      5-min Rain = 0
KES1 241708Z 35001KT 18/06 A3008 RMK A01 T01820060  RH  045%=      5-min Rain = 0
KES1 241709Z 01002KT 18/06 A3008 RMK A01 T01810059  RH  045%=      5-min Rain = 0
KES1 241710Z 03004KT 18/06 A3008 RMK A01 T01820064  RH  046%=      5-min Rain = 0
KES1 241711Z 03004G9KT 19/07 A3008 RMK A01 T01860067  RH  046%=      5-min Rain = 0
KES1 241712Z 04007KT 19/06 A3008 RMK A01 T01870060  RH  043%=      5-min Rain = 0
KES1 241713Z 03005KT 18/05 A3008 RMK A01 T01840054  RH  042%=      5-min Rain = 0
KES1 241714Z 00005KT 18/05 A3008 RMK A01 T01810054  RH  043%=      5-min Rain = 0
KES1 241715Z 01005KT 18/05 A3008 RMK A01 T01790054  RH  044%=      5-min Rain = 0
KES1 241716Z 03005KT 18/06 A3008 RMK A01 T01780059  RH  045%=      5-min Rain = 0
KES1 241717Z 03007KT 18/06 A3007 RMK A01 T01820061  RH  045%=      5-min Rain = 0
KES1 241718Z 03006KT 18/06 A3008 RMK A01 T01830058  RH  044%=      5-min Rain = 0
KES1 241719Z 06003KT 18/06 A3007 RMK A01 T01820056  RH  043%=      5-min Rain = 0
KES1 241720Z 03001KT 18/06 A3007 RMK A01 T01820063  RH  046%=      5-min Rain = 0
KES1 241721Z 02004KT 19/06 A3007 RMK A01 T01850060  RH  044%=      5-min Rain = 0
KES1 241722Z 02007KT 19/06 A3007 RMK A01 T01870063  RH  044%=      5-min Rain = 0
KES1 241723Z 02007KT 19/06 A3007 RMK A01 T01890062  RH  043%=      5-min Rain = 0
KES1 241724Z 01005KT 19/06 A3007 RMK A01 T01880057  RH  042%=      5-min Rain = 0
KES1 241725Z 04003KT 19/06 A3007 RMK A01 T01860055  RH  042%=      5-min Rain = 0
KES1 241726Z 35004KT 18/06 A3007 RMK A01 T01840058  RH  044%=      5-min Rain = 0
KES1 241727Z 01004KT 18/06 A3007 RMK A01 T01830057  RH  044%=      5-min Rain = 0
KES1 241728Z 04006KT 18/06 A3007 RMK A01 T01820058  RH  044%=      5-min Rain = 0
KES1 241729Z 05007KT 18/06 A3007 RMK A01 T01840059  RH  044%=      5-min Rain = 0
KES1 241730Z 03006KT 19/06 A3007 RMK A01 T01860059  RH  043%=      5-min Rain = 0
KES1 241731Z 03004KT 19/06 A3007 RMK A01 T01880058  RH  043%=      5-min Rain = 0
KES1 241732Z 04006KT 19/06 A3007 RMK A01 T01880059  RH  043%=      5-min Rain = 0
KES1 241733Z 04006KT 19/06 A3007 RMK A01 T01890061  RH  043%=      5-min Rain = 0
KES1 241734Z 04006KT 19/06 A3007 RMK A01 T01900061  RH  043%=      5-min Rain = 0
KES1 241735Z 07003KT 19/06 A3007 RMK A01 T01890057  RH  042%=      5-min Rain = 0
KES1 241736Z 06006KT 19/06 A3007 RMK A01 T01870058  RH  043%=      5-min Rain = 0
KES1 241737Z 04006KT 19/06 A3007 RMK A01 T01880060  RH  043%=      5-min Rain = 0
KES1 241738Z 01005KT 19/06 A3007 RMK A01 T01900059  RH  042%=      5-min Rain = 0
KES1 241739Z 01004KT 19/06 A3007 RMK A01 T01890058  RH  042%=      5-min Rain = 0
KES1 241740Z 33004KT 19/06 A3007 RMK A01 T01870057  RH  043%=      5-min Rain = 0
KES1 241741Z 01005KT 19/06 A3007 RMK A01 T01860057  RH  043%=      5-min Rain = 0
KES1 241742Z 33003KT 19/05 A3007 RMK A01 T01850054  RH  042%=      5-min Rain = 0
KES1 241743Z 01003KT 19/06 A3007 RMK A01 T01850060  RH  044%=      5-min Rain = 0
KES1 241744Z 36003KT 19/06 A3007 RMK A01 T01850056  RH  043%=      5-min Rain = 0
KES1 241745Z 02004KT 19/06 A3007 RMK A01 T01850057  RH  043%=      5-min Rain = 0
KES1 241746Z 03008KT 19/06 A3006 RMK A01 T01870061  RH  044%=      5-min Rain = 0
KES1 241747Z 03007KT 19/06 A3006 RMK A01 T01900057  RH  042%=      5-min Rain = 0
KES1 241748Z 03005KT 19/06 A3006 RMK A01 T01900055  RH  041%=      5-min Rain = 0
KES1 241749Z 03007KT 19/06 A3006 RMK A01 T01890056  RH  041%=      5-min Rain = 0
KES1 241750Z 01006KT 19/06 A3006 RMK A01 T01910057  RH  041%=      5-min Rain = 0
KES1 241751Z 02004KT 19/06 A3006 RMK A01 T01910056  RH  041%=      5-min Rain = 0
KES1 241752Z 04002KT 19/06 A3006 RMK A01 T01900057  RH  042%=      5-min Rain = 0
KES1 241753Z 06002KT 19/05 A3006 RMK A01 T01900054  RH  041%=      5-min Rain = 0
KES1 241754Z 06006KT 19/06 A3006 RMK A01 T01910057  RH  041%=      5-min Rain = 0
KES1 241755Z 09007KT 19/06 A3006 RMK A01 T01930057  RH  041%=      5-min Rain = 0
KES1 241756Z 08006KT 19/05 A3006 RMK A01 T01940054  RH  040%=      5-min Rain = 0
KES1 241757Z 03005KT 20/06 A3006 RMK A01 T01950055  RH  040%=      5-min Rain = 0
KES1 241758Z 02006KT 19/06 A3006 RMK A01 T01940055  RH  040%=      5-min Rain = 0
KES1 241759Z 03004KT 19/06 A3006 RMK A01 T01930055  RH  041%=      5-min Rain = 0
KES1 241800Z 02003KT 19/06 A3006 RMK A01 T01920058  RH  041%=      5-min Rain = 0
KES1 241801Z 04004KT 19/06 A3006 RMK A01 T01920059  RH  042%=      5-min Rain = 0
KES1 241802Z 04007KT 19/06 A3006 RMK A01 T01930058  RH  041%=      5-min Rain = 0
KES1 241803Z 03008KT 20/06 A3006 RMK A01 T01950056  RH  040%=      5-min Rain = 0
KES1 241804Z 04005KT 20/06 A3006 RMK A01 T01950055  RH  040%=      5-min Rain = 0
KES1 241805Z 03008KT 20/05 A3006 RMK A01 T01950052  RH  039%=      5-min Rain = 0
KES1 241806Z 04006KT 19/05 A3006 RMK A01 T01920050  RH  039%=      5-min Rain = 0
KES1 241807Z 04003KT 19/05 A3006 RMK A01 T01920052  RH  040%=      5-min Rain = 0
KES1 241808Z 03005KT 19/05 A3006 RMK A01 T01910051  RH  040%=      5-min Rain = 0
KES1 241809Z 05002KT 19/05 A3006 RMK A01 T01920054  RH  040%=      5-min Rain = 0
KES1 241810Z 07003KT 19/05 A3006 RMK A01 T01920051  RH  039%=      5-min Rain = 0
KES1 241811Z 05006KT 19/05 A3006 RMK A01 T01940054  RH  040%=      5-min Rain = 0
KES1 241812Z 03005KT 20/05 A3006 RMK A01 T01950050  RH  038%=      5-min Rain = 0
KES1 241813Z 03006G11KT 20/06 A3005 RMK A01 T01950055  RH  040%=      5-min Rain = 0
KES1 241814Z 02008KT 20/05 A3005 RMK A01 T01970052  RH  039%=      5-min Rain = 0
KES1 241815Z 06004KT 20/05 A3005 RMK A01 T01980050  RH  038%=      5-min Rain = 0
KES1 241816Z 01006G11KT 20/05 A3005 RMK A01 T01990051  RH  038%=      5-min Rain = 0
KES1 241817Z 01008KT 20/05 A3005 RMK A01 T01990050  RH  038%=      5-min Rain = 0
KES1 241818Z 04006KT 20/05 A3005 RMK A01 T01990052  RH  038%=      5-min Rain = 0
KES1 241819Z 04003KT 20/05 A3005 RMK A01 T01980051  RH  038%=      5-min Rain = 0
KES1 241820Z 04002KT 20/05 A3005 RMK A01 T01970047  RH  037%=      5-min Rain = 0
KES1 241821Z 35005KT 20/05 A3005 RMK A01 T01960050  RH  038%=      5-min Rain = 0
KES1 241822Z 02004KT 20/05 A3005 RMK A01 T01960051  RH  038%=      5-min Rain = 0
KES1 241823Z 03003KT 20/05 A3005 RMK A01 T01950049  RH  038%=      5-min Rain = 0
KES1 241824Z 03004KT 20/05 A3005 RMK A01 T01950052  RH  039%=      5-min Rain = 0
KES1 241825Z 01006KT 20/05 A3005 RMK A01 T01950051  RH  039%=      5-min Rain = 0
KES1 241826Z 02007KT 20/05 A3005 RMK A01 T01970052  RH  039%=      5-min Rain = 0
KES1 241827Z 04009KT 20/05 A3005 RMK A01 T01980054  RH  039%=      5-min Rain = 0
KES1 241828Z 04007KT 20/05 A3005 RMK A01 T01990054  RH  039%=      5-min Rain = 0
KES1 241829Z 05006KT 20/05 A3005 RMK A01 T02000054  RH  038%=      5-min Rain = 0
KES1 241830Z 03004KT 20/05 A3005 RMK A01 T02000049  RH  037%=      5-min Rain = 0
KES1 241831Z 03005KT 20/05 A3005 RMK A01 T01990049  RH  037%=      5-min Rain = 0
KES1 241832Z 03007KT 20/05 A3005 RMK A01 T01970048  RH  037%=      5-min Rain = 0
KES1 241833Z 02005KT 20/05 A3005 RMK A01 T01960049  RH  038%=      5-min Rain = 0
KES1 241834Z 03003KT 20/05 A3005 RMK A01 T01960049  RH  038%=      5-min Rain = 0
KES1 241835Z 36001KT 20/05 A3005 RMK A01 T01950049  RH  038%=      5-min Rain = 0
KES1 241836Z 01001KT 20/06 A3005 RMK A01 T01950055  RH  040%=      5-min Rain = 0
KES1 241837Z 31002KT 20/05 A3005 RMK A01 T01960052  RH  039%=      5-min Rain = 0
KES1 241838Z 30002KT 20/06 A3005 RMK A01 T01970056  RH  040%=      5-min Rain = 0
KES1 241839Z 00003KT 20/05 A3005 RMK A01 T01980052  RH  038%=      5-min Rain = 0
KES1 241840Z 03005G11KT 20/05 A3005 RMK A01 T01990054  RH  039%=      5-min Rain = 0
KES1 241841Z 02006KT 20/05 A3005 RMK A01 T02000052  RH  038%=      5-min Rain = 0
KES1 241842Z 04007KT 20/05 A3005 RMK A01 T02010053  RH  038%=      5-min Rain = 0
KES1 241843Z 04009KT 20/05 A3005 RMK A01 T02010052  RH  038%=      5-min Rain = 0
KES1 241844Z 04006KT 20/05 A3005 RMK A01 T02000054  RH  039%=      5-min Rain = 0
KES1 241845Z 02007KT 20/06 A3005 RMK A01 T01990055  RH  039%=      5-min Rain = 0
KES1 241846Z 03007KT 20/05 A3005 RMK A01 T01990054  RH  039%=      5-min Rain = 0
KES1 241847Z 01006KT 20/05 A3004 RMK A01 T01980050  RH  038%=      5-min Rain = 0
KES1 241848Z 02003KT 20/05 A3004 RMK A01 T01970052  RH  038%=      5-min Rain = 0
KES1 241849Z 35003KT 20/05 A3005 RMK A01 T01960052  RH  039%=      5-min Rain = 0
KES1 241850Z 01006KT 20/06 A3005 RMK A01 T01960057  RH  040%=      5-min Rain = 0
KES1 241851Z 02008KT 20/05 A3005 RMK A01 T01960053  RH  039%=      5-min Rain = 0
KES1 241852Z 02006KT 20/05 A3005 RMK A01 T01960049  RH  038%=      5-min Rain = 0
KES1 241853Z 01005KT 20/05 A3005 RMK A01 T01950048  RH  038%=      5-min Rain = 0
KES1 241854Z 01004KT 20/05 A3005 RMK A01 T01950047  RH  038%=      5-min Rain = 0
KES1 241855Z 01004KT 19/05 A3005 RMK A01 T01940049  RH  038%=      5-min Rain = 0
KES1 241856Z 03004KT 20/05 A3005 RMK A01 T01950048  RH  038%=      5-min Rain = 0
KES1 241857Z 01003KT 20/05 A3005 RMK A01 T01950051  RH  039%=      5-min Rain = 0
KES1 241858Z 01005KT 20/05 A3005 RMK A01 T01970051  RH  038%=      5-min Rain = 0
KES1 241859Z 02007KT 20/05 A3005 RMK A01 T01990051  RH  038%=      5-min Rain = 0
KES1 241900Z 02009KT 20/05 A3005 RMK A01 T02010048  RH  036%=      5-min Rain = 0
KES1 241901Z 02008KT 20/05 A3005 RMK A01 T02020048  RH  036%=      5-min Rain = 0
KES1 241902Z 01008KT 20/05 A3005 RMK A01 T02030049  RH  036%=      5-min Rain = 0
KES1 241903Z 36007KT 20/05 A3005 RMK A01 T02030051  RH  037%=      5-min Rain = 0
KES1 241904Z 00007KT 21/05 A3005 RMK A01 T02050054  RH  037%=      5-min Rain = 0
KES1 241905Z 36005KT 21/05 A3005 RMK A01 T02060052  RH  036%=      5-min Rain = 0
KES1 241906Z 01005KT 21/05 A3005 RMK A01 T02060049  RH  036%=      5-min Rain = 0
KES1 241907Z 04005KT 21/05 A3005 RMK A01 T02050048  RH  036%=      5-min Rain = 0
KES1 241908Z 04007KT 21/05 A3005 RMK A01 T02050049  RH  036%=      5-min Rain = 0
KES1 241909Z 04006KT 21/05 A3005 RMK A01 T02060051  RH  036%=      5-min Rain = 0
KES1 241910Z 06007KT 21/05 A3005 RMK A01 T02060050  RH  036%=      5-min Rain = 0
KES1 241911Z 05004KT 21/05 A3005 RMK A01 T02050048  RH  036%=      5-min Rain = 0
KES1 241912Z 05005KT 21/05 A3005 RMK A01 T02050048  RH  036%=      5-min Rain = 0
KES1 241913Z 08005KT 21/05 A3005 RMK A01 T02050050  RH  036%=      5-min Rain = 0
KES1 241914Z 10003KT 20/05 A3005 RMK A01 T02040049  RH  036%=      5-min Rain = 0
KES1 241915Z 04004KT 20/05 A3005 RMK A01 T02040054  RH  037%=      5-min Rain = 0
KES1 241916Z 04004KT 21/05 A3005 RMK A01 T02050054  RH  037%=      5-min Rain = 0
KES1 241917Z 06002KT 21/05 A3005 RMK A01 T02060050  RH  036%=      5-min Rain = 0
KES1 241918Z 09001KT 21/05 A3004 RMK A01 T02050050  RH  036%=      5-min Rain = 0
KES1 241919Z 12002KT 21/05 A3004 RMK A01 T02050052  RH  037%=      5-min Rain = 0
KES1 241920Z 10000KT 21/05 A3004 RMK A01 T02060051  RH  036%=      5-min Rain = 0
KES1 241921Z 35005KT 21/06 A3004 RMK A01 T02070056  RH  037%=      5-min Rain = 0
KES1 241922Z 36005KT 21/05 A3004 RMK A01 T02080050  RH  035%=      5-min Rain = 0
KES1 241923Z 36008KT 21/05 A3005 RMK A01 T02070052  RH  036%=      5-min Rain = 0
KES1 241924Z 01006KT 21/06 A3005 RMK A01 T02070055  RH  037%=      5-min Rain = 0
KES1 241925Z 35006KT 21/05 A3005 RMK A01 T02090053  RH  036%=      5-min Rain = 0
KES1 241926Z 35005KT 21/05 A3004 RMK A01 T02090053  RH  036%=      5-min Rain = 0
KES1 241927Z 34004KT 21/05 A3004 RMK A01 T02090051  RH  035%=      5-min Rain = 0
KES1 241928Z 32003KT 21/05 A3004 RMK A01 T02090054  RH  036%=      5-min Rain = 0
KES1 241929Z 31001KT 21/05 A3004 RMK A01 T02090049  RH  035%=      5-min Rain = 0
KES1 241930Z 31002KT 21/06 A3004 RMK A01 T02080056  RH  037%=      5-min Rain = 0
KES1 241931Z 30002KT 21/05 A3004 RMK A01 T02090051  RH  036%=      5-min Rain = 0
KES1 241932Z 01007KT 21/05 A3004 RMK A01 T02090053  RH  036%=      5-min Rain = 0
KES1 241933Z 02009KT 21/06 A3004 RMK A01 T02100055  RH  036%=      5-min Rain = 0
KES1 241934Z 03009KT 21/05 A3004 RMK A01 T02100054  RH  036%=      5-min Rain = 0
KES1 241935Z 01010KT 21/05 A3004 RMK A01 T02100054  RH  036%=      5-min Rain = 0
KES1 241936Z 02010KT 21/05 A3004 RMK A01 T02110051  RH  035%=      5-min Rain = 0
KES1 241937Z 02008KT 21/05 A3004 RMK A01 T02110053  RH  036%=      5-min Rain = 0
KES1 241938Z 02009KT 21/05 A3004 RMK A01 T02120054  RH  036%=      5-min Rain = 0
KES1 241939Z 01008KT 21/05 A3004 RMK A01 T02120052  RH  035%=      5-min Rain = 0
KES1 241940Z 02005KT 21/05 A3004 RMK A01 T02100050  RH  035%=      5-min Rain = 0
KES1 241941Z 04006KT 21/05 A3004 RMK A01 T02100053  RH  036%=      5-min Rain = 0
KES1 241942Z 04004KT 21/05 A3004 RMK A01 T02090051  RH  036%=      5-min Rain = 0
KES1 241943Z 01006KT 21/05 A3004 RMK A01 T02090051  RH  035%=      5-min Rain = 0
KES1 241944Z 04004KT 21/06 A3004 RMK A01 T02080055  RH  037%=      5-min Rain = 0
KES1 241945Z 03004KT 21/06 A3004 RMK A01 T02100059  RH  037%=      5-min Rain = 0
KES1 241946Z 02005KT 21/05 A3003 RMK A01 T02130054  RH  036%=      5-min Rain = 0
KES1 241947Z 04003KT 21/05 A3003 RMK A01 T02120051  RH  035%=      5-min Rain = 0
KES1 241948Z 06005KT 21/05 A3003 RMK A01 T02120052  RH  035%=      5-min Rain = 0
KES1 241949Z 04004KT 21/05 A3003 RMK A01 T02120046  RH  034%=      5-min Rain = 0
KES1 241950Z 00003KT 21/05 A3003 RMK A01 T02110050  RH  035%=      5-min Rain = 0
KES1 241951Z 35007KT 21/05 A3003 RMK A01 T02110052  RH  035%=      5-min Rain = 0
KES1 241952Z 36008KT 21/05 A3003 RMK A01 T02120054  RH  036%=      5-min Rain = 0
KES1 241953Z 34007KT 21/05 A3003 RMK A01 T02120052  RH  035%=      5-min Rain = 0
KES1 241954Z 04008KT 21/06 A3003 RMK A01 T02120059  RH  037%=      5-min Rain = 0
KES1 241955Z 06008KT 21/06 A3003 RMK A01 T02140056  RH  036%=      5-min Rain = 0
KES1 241956Z 05007KT 21/05 A3003 RMK A01 T02140052  RH  035%=      5-min Rain = 0
KES1 241957Z 05005KT 21/05 A3003 RMK A01 T02120051  RH  035%=      5-min Rain = 0
KES1 241958Z 05004KT 21/05 A3003 RMK A01 T02100050  RH  035%=      5-min Rain = 0
KES1 241959Z 05004KT 21/06 A3003 RMK A01 T02110056  RH  036%=      5-min Rain = 0
KES1 242000Z 06003KT 21/05 A3003 RMK A01 T02120051  RH  035%=      5-min Rain = 0
KES1 242001Z 03004KT 21/05 A3003 RMK A01 T02120052  RH  035%=      5-min Rain = 0
KES1 242002Z 02006KT 21/05 A3003 RMK A01 T02120052  RH  035%=      5-min Rain = 0
KES1 242003Z 02005KT 21/05 A3003 RMK A01 T02120054  RH  036%=      5-min Rain = 0
KES1 242004Z 05004KT 21/05 A3003 RMK A01 T02130053  RH  035%=      5-min Rain = 0
KES1 242005Z 08003KT 21/05 A3003 RMK A01 T02130047  RH  034%=      5-min Rain = 0
KES1 242006Z 04006KT 21/06 A3003 RMK A01 T02120055  RH  036%=      5-min Rain = 0
KES1 242007Z 04007KT 22/05 A3003 RMK A01 T02150051  RH  034%=      5-min Rain = 0
KES1 242008Z 06005KT 22/05 A3003 RMK A01 T02150049  RH  034%=      5-min Rain = 0
KES1 242009Z 06005KT 21/05 A3003 RMK A01 T02140047  RH  034%=      5-min Rain = 0
KES1 242010Z 06007KT 21/05 A3003 RMK A01 T02120048  RH  034%=      5-min Rain = 0
KES1 242011Z 05008KT 21/05 A3003 RMK A01 T02130053  RH  035%=      5-min Rain = 0
KES1 242012Z 06005KT 21/05 A3003 RMK A01 T02140048  RH  034%=      5-min Rain = 0
KES1 242013Z 07004KT 21/05 A3003 RMK A01 T02120048  RH  034%=      5-min Rain = 0
KES1 242014Z 07005KT 21/04 A3003 RMK A01 T02110044  RH  034%=      5-min Rain = 0
KES1 242015Z 09004KT 21/04 A3003 RMK A01 T02090042  RH  033%=      5-min Rain = 0
KES1 242016Z 10004KT 21/04 A3003 RMK A01 T02080044  RH  034%=      5-min Rain = 0
KES1 242017Z 09002KT 21/05 A3003 RMK A01 T02090045  RH  034%=      5-min Rain = 0
KES1 242018Z 04002KT 21/05 A3003 RMK A01 T02100051  RH  035%=      5-min Rain = 0
KES1 242019Z 03004KT 21/06 A3003 RMK A01 T02120056  RH  036%=      5-min Rain = 0
KES1 242020Z 02005KT 22/06 A3003 RMK A01 T02160060  RH  036%=      5-min Rain = 0
KES1 242021Z 05005KT 22/06 A3003 RMK A01 T02190059  RH  035%=      5-min Rain = 0
KES1 242022Z 07007KT 22/05 A3002 RMK A01 T02210053  RH  034%=      5-min Rain = 0
KES1 242023Z 07006KT 22/05 A3002 RMK A01 T02200052  RH  034%=      5-min Rain = 0
KES1 242024Z 04007KT 22/05 A3002 RMK A01 T02170050  RH  034%=      5-min Rain = 0
KES1 242025Z 04006KT 22/05 A3002 RMK A01 T02150050  RH  034%=      5-min Rain = 0
KES1 242026Z 02005KT 21/05 A3002 RMK A01 T02130048  RH  034%=      5-min Rain = 0
KES1 242027Z 04004KT 21/05 A3002 RMK A01 T02100049  RH  035%=      5-min Rain = 0
KES1 242028Z 04006KT 21/05 A3002 RMK A01 T02100047  RH  034%=      5-min Rain = 0
KES1 242029Z 05005KT 21/05 A3002 RMK A01 T02100053  RH  036%=      5-min Rain = 0
KES1 242030Z 06003KT 21/06 A3002 RMK A01 T02130055  RH  036%=      5-min Rain = 0
KES1 242031Z 07002KT 22/06 A3002 RMK A01 T02150057  RH  036%=      5-min Rain = 0
KES1 242032Z 02002KT 22/06 A3002 RMK A01 T02170056  RH  035%=      5-min Rain = 0
KES1 242033Z 04004KT 22/05 A3003 RMK A01 T02170049  RH  033%=      5-min Rain = 0
KES1 242034Z 04004KT 22/05 A3003 RMK A01 T02150048  RH  034%=      5-min Rain = 0
KES1 242035Z 02003KT 21/05 A3003 RMK A01 T02120048  RH  034%=      5-min Rain = 0
KES1 242036Z 00005KT 21/05 A3003 RMK A01 T02110053  RH  035%=      5-min Rain = 0
KES1 242037Z 00007KT 21/05 A3003 RMK A01 T02120052  RH  035%=      5-min Rain = 0
KES1 242038Z 02006KT 21/05 A3003 RMK A01 T02130054  RH  035%=      5-min Rain = 0
KES1 242039Z 02005KT 22/05 A3003 RMK A01 T02150048  RH  034%=      5-min Rain = 0
KES1 242040Z 02005KT 22/05 A3003 RMK A01 T02150054  RH  035%=      5-min Rain = 0
KES1 242041Z 04005KT 22/05 A3003 RMK A01 T02160053  RH  034%=      5-min Rain = 0
KES1 242042Z 05006KT 22/05 A3003 RMK A01 T02160050  RH  034%=      5-min Rain = 0
KES1 242043Z 05005KT 22/05 A3003 RMK A01 T02150051  RH  034%=      5-min Rain = 0
KES1 242044Z 01006KT 21/05 A3003 RMK A01 T02130049  RH  034%=      5-min Rain = 0
KES1 242045Z 01005KT 21/05 A3003 RMK A01 T02120046  RH  034%=      5-min Rain = 0
KES1 242046Z 35007KT 21/05 A3003 RMK A01 T02100048  RH  035%=      5-min Rain = 0
KES1 242047Z 35010KT 21/05 A3003 RMK A01 T02100049  RH  035%=      5-min Rain = 0
KES1 242048Z 35009KT 21/05 A3003 RMK A01 T02120051  RH  035%=      5-min Rain = 0
KES1 242049Z 36008KT 21/05 A3003 RMK A01 T02140049  RH  034%=      5-min Rain = 0
KES1 242050Z 01008KT 21/05 A3003 RMK A01 T02130048  RH  034%=      5-min Rain = 0
KES1 242051Z 00008KT 21/05 A3003 RMK A01 T02130049  RH  034%=      5-min Rain = 0
KES1 242052Z 35007KT 21/05 A3003 RMK A01 T02130045  RH  033%=      5-min Rain = 0
KES1 242053Z 35006KT 21/05 A3003 RMK A01 T02130046  RH  034%=      5-min Rain = 0
KES1 242054Z 01006KT 21/06 A3003 RMK A01 T02120055  RH  036%=      5-min Rain = 0
KES1 242055Z 01006KT 22/05 A3003 RMK A01 T02160049  RH  034%=      5-min Rain = 0
KES1 242056Z 03005KT 22/05 A3002 RMK A01 T02170051  RH  034%=      5-min Rain = 0
KES1 242057Z 01004KT 22/05 A3002 RMK A01 T02160047  RH  033%=      5-min Rain = 0
KES1 242058Z 02005KT 22/05 A3002 RMK A01 T02160051  RH  034%=      5-min Rain = 0
KES1 242059Z 04007KT 22/05 A3002 RMK A01 T02170054  RH  035%=      5-min Rain = 0
KES1 242100Z 05004KT 22/05 A3002 RMK A01 T02190048  RH  033%=      5-min Rain = 0
KES1 242101Z 07002KT 22/05 A3002 RMK A01 T02170046  RH  033%=      5-min Rain = 0
KES1 242102Z 02001KT 22/05 A3002 RMK A01 T02160052  RH  034%=      5-min Rain = 0
KES1 242103Z 36001KT 22/05 A3002 RMK A01 T02170052  RH  034%=      5-min Rain = 0
KES1 242104Z 07005KT 22/05 A3002 RMK A01 T02180053  RH  034%=      5-min Rain = 0
KES1 242105Z 08004KT 22/05 A3002 RMK A01 T02180045  RH  032%=      5-min Rain = 0
KES1 242106Z 11003KT 22/05 A3002 RMK A01 T02170047  RH  033%=      5-min Rain = 0
KES1 242107Z 05006KT 22/05 A3002 RMK A01 T02170051  RH  034%=      5-min Rain = 0
KES1 242108Z 04003KT 22/05 A3002 RMK A01 T02190048  RH  033%=      5-min Rain = 0
KES1 242109Z 06004KT 22/06 A3002 RMK A01 T02200055  RH  034%=      5-min Rain = 0
KES1 242110Z 07003KT 22/05 A3002 RMK A01 T02230053  RH  033%=      5-min Rain = 0
KES1 242111Z 04004KT 22/05 A3002 RMK A01 T02240053  RH  033%=      5-min Rain = 0
KES1 242112Z 01005KT 22/05 A3002 RMK A01 T02220048  RH  032%=      5-min Rain = 0
KES1 242113Z 33005KT 22/05 A3002 RMK A01 T02190047  RH  032%=      5-min Rain = 0
KES1 242114Z 36004KT 22/05 A3002 RMK A01 T02160049  RH  033%=      5-min Rain = 0
KES1 242115Z 36003KT 22/05 A3002 RMK A01 T02160048  RH  033%=      5-min Rain = 0
KES1 242116Z 03003KT 22/05 A3002 RMK A01 T02160050  RH  034%=      5-min Rain = 0
KES1 242117Z 03003KT 22/05 A3002 RMK A01 T02170050  RH  034%=      5-min Rain = 0
KES1 242118Z 05005KT 22/05 A3002 RMK A01 T02200052  RH  033%=      5-min Rain = 0
KES1 242119Z 01005KT 22/05 A3002 RMK A01 T02210051  RH  033%=      5-min Rain = 0
KES1 242120Z 33004KT 22/05 A3002 RMK A01 T02200047  RH  032%=      5-min Rain = 0
KES1 242121Z 35003KT 22/05 A3002 RMK A01 T02190047  RH  032%=      5-min Rain = 0
KES1 242122Z 09004KT 22/05 A3002 RMK A01 T02190053  RH  034%=      5-min Rain = 0
KES1 242123Z 11006KT 22/05 A3001 RMK A01 T02200047  RH  032%=      5-min Rain = 0
KES1 242124Z 06003KT 22/05 A3002 RMK A01 T02200048  RH  033%=      5-min Rain = 0
KES1 242125Z 04001KT 22/05 A3002 RMK A01 T02200049  RH  033%=      5-min Rain = 0
KES1 242126Z 07002KT 22/05 A3002 RMK A01 T02200045  RH  032%=      5-min Rain = 0
KES1 242127Z 10004KT 22/05 A3002 RMK A01 T02200045  RH  032%=      5-min Rain = 0
KES1 242128Z 09002KT 22/04 A3002 RMK A01 T02200043  RH  032%=      5-min Rain = 0
KES1 242129Z 10001KT 22/04 A3002 RMK A01 T02190044  RH  032%=      5-min Rain = 0
KES1 242130Z 10001KT 22/04 A3002 RMK A01 T02190044  RH  032%=      5-min Rain = 0
KES1 242131Z 15002KT 22/04 A3002 RMK A01 T02200043  RH  031%=      5-min Rain = 0
KES1 242132Z 18004KT 22/05 A3002 RMK A01 T02210049  RH  033%=      5-min Rain = 0
KES1 242133Z 16002KT 22/04 A3002 RMK A01 T02220044  RH  031%=      5-min Rain = 0
KES1 242134Z 16001KT 22/04 A3002 RMK A01 T02220043  RH  031%=      5-min Rain = 0
KES1 242135Z 18001KT 22/04 A3002 RMK A01 T02210042  RH  031%=      5-min Rain = 0
KES1 242136Z 18002KT 22/05 A3002 RMK A01 T02210045  RH  032%=      5-min Rain = 0
KES1 242137Z 15001KT 22/05 A3002 RMK A01 T02220045  RH  031%=      5-min Rain = 0
KES1 242138Z 20001KT 22/04 A3002 RMK A01 T02220044  RH  031%=      5-min Rain = 0
KES1 242139Z 15001KT 22/05 A3002 RMK A01 T02240052  RH  033%=      5-min Rain = 0
KES1 242140Z 02004G9KT 23/05 A3002 RMK A01 T02250050  RH  032%=      5-min Rain = 0
KES1 242141Z 07006KT 23/06 A3002 RMK A01 T02260057  RH  034%=      5-min Rain = 0
KES1 242142Z 06006KT 23/06 A3002 RMK A01 T02280055  RH  033%=      5-min Rain = 0
KES1 242143Z 05006KT 23/06 A3002 RMK A01 T02270055  RH  033%=      5-min Rain = 0
KES1 242144Z 05007KT 23/06 A3002 RMK A01 T02270056  RH  033%=      5-min Rain = 0
KES1 242145Z 04004KT 23/05 A3002 RMK A01 T02260054  RH  033%=      5-min Rain = 0
KES1 242146Z 04004KT 22/06 A3001 RMK A01 T02240056  RH  033%=      5-min Rain = 0
KES1 242147Z 03005KT 22/05 A3001 RMK A01 T02230054  RH  033%=      5-min Rain = 0
KES1 242148Z 01004KT 22/05 A3001 RMK A01 T02220053  RH  033%=      5-min Rain = 0
KES1 242149Z 34004KT 22/05 A3001 RMK A01 T02210052  RH  033%=      5-min Rain = 0
KES1 242150Z 33003KT 22/05 A3001 RMK A01 T02190051  RH  033%=      5-min Rain = 0
KES1 242151Z 34006KT 22/05 A3002 RMK A01 T02180052  RH  034%=      5-min Rain = 0
KES1 242152Z 34005KT 22/05 A3002 RMK A01 T02180053  RH  034%=      5-min Rain = 0
KES1 242153Z 34004KT 22/05 A3002 RMK A01 T02190051  RH  033%=      5-min Rain = 0
KES1 242154Z 35004KT 22/06 A3002 RMK A01 T02190056  RH  034%=      5-min Rain = 0
KES1 242155Z 36003KT 22/06 A3002 RMK A01 T02220057  RH  034%=      5-min Rain = 0
KES1 242156Z 35004KT 22/06 A3002 RMK A01 T02240061  RH  035%=      5-min Rain = 0
KES1 242157Z 01007KT 23/06 A3002 RMK A01 T02260055  RH  033%=      5-min Rain = 0
KES1 242158Z 02007KT 23/06 A3002 RMK A01 T02260056  RH  033%=      5-min Rain = 0
KES1 242159Z 02007KT 23/05 A3002 RMK A01 T02270052  RH  032%=      5-min Rain = 0
KES1 242200Z 03006KT 23/05 A3002 RMK A01 T02260051  RH  032%=      5-min Rain = 0
KES1 242201Z 03006KT 23/05 A3002 RMK A01 T02250053  RH  033%=      5-min Rain = 0
KES1 242202Z 02005KT 22/05 A3002 RMK A01 T02240053  RH  033%=      5-min Rain = 0
KES1 242203Z 03004KT 22/05 A3002 RMK A01 T02240051  RH  032%=      5-min Rain = 0
KES1 242204Z 09005KT 22/05 A3002 RMK A01 T02230051  RH  033%=      5-min Rain = 0
KES1 242205Z 08003KT 22/05 A3002 RMK A01 T02220051  RH  033%=      5-min Rain = 0
KES1 242206Z 05002KT 22/05 A3002 RMK A01 T02210052  RH  033%=      5-min Rain = 0
KES1 242207Z 04004KT 22/06 A3002 RMK A01 T02220055  RH  034%=      5-min Rain = 0
KES1 242208Z 36006KT 23/06 A3002 RMK A01 T02250057  RH  033%=      5-min Rain = 0
KES1 242209Z 36005KT 23/05 A3002 RMK A01 T02250047  RH  031%=      5-min Rain = 0
KES1 242210Z 03004KT 22/05 A3002 RMK A01 T02230047  RH  032%=      5-min Rain = 0
KES1 242211Z 05003KT 22/05 A3002 RMK A01 T02220052  RH  033%=      5-min Rain = 0
KES1 242212Z 02003KT 22/05 A3002 RMK A01 T02230047  RH  032%=      5-min Rain = 0
KES1 242213Z 01003KT 22/05 A3002 RMK A01 T02230050  RH  032%=      5-min Rain = 0
KES1 242214Z 35004KT 23/06 A3002 RMK A01 T02250055  RH  033%=      5-min Rain = 0
KES1 242215Z 32007KT 23/05 A3002 RMK A01 T02270053  RH  032%=      5-min Rain = 0
KES1 242216Z 31006KT 23/05 A3002 RMK A01 T02280049  RH  031%=      5-min Rain = 0
KES1 242217Z 29003KT 23/05 A3002 RMK A01 T02260049  RH  032%=      5-min Rain = 0
KES1 242218Z 30005KT 23/05 A3002 RMK A01 T02250052  RH  032%=      5-min Rain = 0
KES1 242219Z 32005KT 23/05 A3002 RMK A01 T02250049  RH  032%=      5-min Rain = 0
KES1 242220Z 33002KT 23/05 A3002 RMK A01 T02250048  RH  032%=      5-min Rain = 0
KES1 242221Z 30005KT 22/05 A3002 RMK A01 T02240052  RH  033%=      5-min Rain = 0
KES1 242222Z 31006KT 23/05 A3002 RMK A01 T02250048  RH  032%=      5-min Rain = 0
KES1 242223Z 31005KT 23/05 A3002 RMK A01 T02250048  RH  032%=      5-min Rain = 0
KES1 242224Z 32004KT 23/05 A3002 RMK A01 T02250050  RH  032%=      5-min Rain = 0
KES1 242225Z 35005KT 23/05 A3002 RMK A01 T02260051  RH  032%=      5-min Rain = 0
KES1 242226Z 02005KT 23/05 A3002 RMK A01 T02250047  RH  031%=      5-min Rain = 0
KES1 242227Z 00003KT 23/05 A3002 RMK A01 T02250048  RH  031%=      5-min Rain = 0
KES1 242228Z 34003KT 23/05 A3002 RMK A01 T02250047  RH  031%=      5-min Rain = 0
KES1 242229Z 36003KT 22/05 A3002 RMK A01 T02240050  RH  032%=      5-min Rain = 0
KES1 242230Z 03005KT 23/05 A3001 RMK A01 T02260051  RH  032%=      5-min Rain = 0
KES1 242231Z 01004KT 23/04 A3001 RMK A01 T02260044  RH  031%=      5-min Rain = 0
KES1 242232Z 01003KT 23/04 A3001 RMK A01 T02250043  RH  031%=      5-min Rain = 0
KES1 242233Z 01001KT 22/05 A3001 RMK A01 T02230046  RH  032%=      5-min Rain = 0
KES1 242234Z 26001KT 22/05 A3001 RMK A01 T02220045  RH  031%=      5-min Rain = 0
KES1 242235Z 21001KT 22/04 A3001 RMK A01 T02230043  RH  031%=      5-min Rain = 0
KES1 242236Z 24002KT 22/05 A3001 RMK A01 T02240051  RH  032%=      5-min Rain = 0
KES1 242237Z 22001KT 23/04 A3001 RMK A01 T02250044  RH  031%=      5-min Rain = 0
KES1 242238Z 18001KT 23/04 A3001 RMK A01 T02250041  RH  030%=      5-min Rain = 0
KES1 242239Z 11001KT 23/05 A3001 RMK A01 T02250046  RH  031%=      5-min Rain = 0
KES1 242240Z 09003KT 23/05 A3001 RMK A01 T02250045  RH  031%=      5-min Rain = 0
KES1 242241Z 06003KT 23/05 A3001 RMK A01 T02250045  RH  031%=      5-min Rain = 0
KES1 242242Z 06003KT 22/05 A3001 RMK A01 T02240050  RH  032%=      5-min Rain = 0
KES1 242243Z 07001KT 23/05 A3001 RMK A01 T02250047  RH  031%=      5-min Rain = 0
KES1 242244Z 06002KT 23/05 A3001 RMK A01 T02250049  RH  032%=      5-min Rain = 0
KES1 242245Z 04002KT 23/05 A3001 RMK A01 T02250050  RH  032%=      5-min Rain = 0
KES1 242246Z 08005KT 23/05 A3001 RMK A01 T02250053  RH  033%=      5-min Rain = 0
KES1 242247Z 09008KT 23/05 A3001 RMK A01 T02260051  RH  032%=      5-min Rain = 0
KES1 242248Z 09005KT 23/05 A3001 RMK A01 T02250048  RH  032%=      5-min Rain = 0
KES1 242249Z 10005KT 22/05 A3001 RMK A01 T02220048  RH  032%=      5-min Rain = 0
KES1 242250Z 11003KT 22/05 A3001 RMK A01 T02210049  RH  032%=      5-min Rain = 0
KES1 242251Z 17001KT 22/05 A3001 RMK A01 T02210051  RH  033%=      5-min Rain = 0
KES1 242252Z 10001KT 22/05 A3001 RMK A01 T02210054  RH  034%=      5-min Rain = 0
KES1 242253Z 12006KT 22/05 A3001 RMK A01 T02220051  RH  033%=      5-min Rain = 0
KES1 242254Z 11007KT 22/05 A3001 RMK A01 T02230050  RH  032%=      5-min Rain = 0
KES1 242255Z 07005KT 22/05 A3001 RMK A01 T02230051  RH  033%=      5-min Rain = 0
KES1 242256Z 07004KT 22/05 A3001 RMK A01 T02220051  RH  033%=      5-min Rain = 0
KES1 242257Z 10005KT 22/05 A3001 RMK A01 T02230053  RH  033%=      5-min Rain = 0
KES1 242258Z 09007KT 22/05 A3001 RMK A01 T02240052  RH  033%=      5-min Rain = 0
KES1 242259Z 05004KT 23/05 A3001 RMK A01 T02250054  RH  033%=      5-min Rain = 0
KES1 242300Z 05003KT 23/06 A3001 RMK A01 T02250055  RH  033%=      5-min Rain = 0
KES1 242301Z 06007KT 23/05 A3001 RMK A01 T02260053  RH  033%=      5-min Rain = 0
KES1 242302Z 06007KT 23/06 A3001 RMK A01 T02270056  RH  033%=      5-min Rain = 0
KES1 242303Z 07007KT 23/05 A3001 RMK A01 T02270054  RH  032%=      5-min Rain = 0
KES1 242304Z 08007KT 23/05 A30 RMK A01 T02270051  RH  032%=      5-min Rain = 0
KES1 242305Z 09007KT 22/05 A30 RMK A01 T02240048  RH  032%=      5-min Rain = 0
KES1 242306Z 07007KT 22/05 A30 RMK A01 T02240052  RH  033%=      5-min Rain = 0
KES1 242307Z 06007KT 22/05 A30 RMK A01 T02240052  RH  033%=      5-min Rain = 0
KES1 242308Z 08008KT 23/05 A30 RMK A01 T02250052  RH  032%=      5-min Rain = 0
KES1 242309Z 11006KT 23/05 A30 RMK A01 T02250049  RH  032%=      5-min Rain = 0
KES1 242310Z 11007KT 22/05 A30 RMK A01 T02240048  RH  032%=      5-min Rain = 0
KES1 242311Z 06006KT 22/05 A30 RMK A01 T02230049  RH  032%=      5-min Rain = 0
KES1 242312Z 05008KT 22/05 A30 RMK A01 T02230052  RH  033%=      5-min Rain = 0
KES1 242313Z 05007KT 22/05 A3001 RMK A01 T02240051  RH  032%=      5-min Rain = 0
KES1 242314Z 04007KT 22/05 A3001 RMK A01 T02240052  RH  033%=      5-min Rain = 0
KES1 242315Z 05008KT 22/05 A3001 RMK A01 T02240050  RH  032%=      5-min Rain = 0
KES1 242316Z 06007KT 22/05 A3001 RMK A01 T02240052  RH  033%=      5-min Rain = 0
KES1 242317Z 07006KT 22/05 A3001 RMK A01 T02240051  RH  032%=      5-min Rain = 0
KES1 242318Z 06005KT 22/05 A3001 RMK A01 T02240051  RH  032%=      5-min Rain = 0
KES1 242319Z 07005KT 22/05 A3001 RMK A01 T02230051  RH  033%=      5-min Rain = 0
KES1 242320Z 07004KT 22/05 A3001 RMK A01 T02220048  RH  032%=      5-min Rain = 0
KES1 242321Z 07005KT 22/05 A3001 RMK A01 T02220051  RH  033%=      5-min Rain = 0
KES1 242322Z 06006KT 22/05 A3001 RMK A01 T02220052  RH  033%=      5-min Rain = 0
KES1 242323Z 04005KT 22/05 A3001 RMK A01 T02230052  RH  033%=      5-min Rain = 0
KES1 242324Z 07007KT 22/06 A3001 RMK A01 T02230055  RH  034%=      5-min Rain = 0
KES1 242325Z 07007KT 22/05 A3001 RMK A01 T02240051  RH  032%=      5-min Rain = 0
KES1 242326Z 08007KT 22/05 A3001 RMK A01 T02240050  RH  032%=      5-min Rain = 0
KES1 242327Z 07005KT 22/05 A3001 RMK A01 T02230049  RH  032%=      5-min Rain = 0
KES1 242328Z 04006KT 22/05 A3001 RMK A01 T02220054  RH  033%=      5-min Rain = 0
KES1 242329Z 05007KT 22/06 A3001 RMK A01 T02220055  RH  034%=      5-min Rain = 0
KES1 242330Z 06007KT 22/05 A3001 RMK A01 T02220051  RH  033%=      5-min Rain = 0
KES1 242331Z 05006KT 22/05 A3001 RMK A01 T02210050  RH  033%=      5-min Rain = 0
KES1 242332Z 04007KT 22/05 A3001 RMK A01 T02200052  RH  033%=      5-min Rain = 0
KES1 242333Z 03006KT 22/05 A3001 RMK A01 T02200052  RH  033%=      5-min Rain = 0
KES1 242334Z 05006KT 22/05 A3001 RMK A01 T02200051  RH  033%=      5-min Rain = 0
KES1 242335Z 05007KT 22/05 A3001 RMK A01 T02190053  RH  034%=      5-min Rain = 0
KES1 242336Z 06008KT 22/05 A3001 RMK A01 T02190053  RH  034%=      5-min Rain = 0
KES1 242337Z 07007KT 22/05 A3001 RMK A01 T02190050  RH  033%=      5-min Rain = 0
KES1 242338Z 07006KT 22/05 A3001 RMK A01 T02190050  RH  033%=      5-min Rain = 0
KES1 242339Z 07006KT 22/05 A3001 RMK A01 T02180051  RH  034%=      5-min Rain = 0
KES1 242340Z 06005KT 22/05 A3001 RMK A01 T02180050  RH  033%=      5-min Rain = 0
KES1 242341Z 07004KT 22/05 A3001 RMK A01 T02180050  RH  034%=      5-min Rain = 0
KES1 242342Z 09004KT 22/05 A3001 RMK A01 T02170050  RH  034%=      5-min Rain = 0
KES1 242343Z 04004KT 22/05 A3001 RMK A01 T02180053  RH  034%=      5-min Rain = 0
KES1 242344Z 03004KT 22/05 A3001 RMK A01 T02190052  RH  034%=      5-min Rain = 0
KES1 242345Z 02005KT 22/05 A3001 RMK A01 T02190054  RH  034%=      5-min Rain = 0
KES1 242346Z 04006KT 22/05 A3001 RMK A01 T02190052  RH  034%=      5-min Rain = 0
KES1 242347Z 05008KT 22/05 A3001 RMK A01 T02190053  RH  034%=      5-min Rain = 0
KES1 242348Z 06007KT 22/05 A3001 RMK A01 T02190051  RH  033%=      5-min Rain = 0
KES1 242349Z 06006KT 22/05 A3001 RMK A01 T02180050  RH  033%=      5-min Rain = 0
KES1 242350Z 05004KT 22/05 A3002 RMK A01 T02170052  RH  034%=      5-min Rain = 0
KES1 242351Z 06004KT 22/05 A3002 RMK A01 T02170050  RH  034%=      5-min Rain = 0
KES1 242352Z 03005KT 22/05 A3002 RMK A01 T02170051  RH  034%=      5-min Rain = 0
KES1 242353Z 04008KT 22/05 A3002 RMK A01 T02180052  RH  034%=      5-min Rain = 0
KES1 242354Z 03005KT 22/05 A3002 RMK A01 T02170052  RH  034%=      5-min Rain = 0
KES1 242355Z 04005KT 22/05 A3002 RMK A01 T02180052  RH  034%=      5-min Rain = 0
KES1 242356Z 04005KT 22/05 A3002 RMK A01 T02170052  RH  034%=      5-min Rain = 0
KES1 242357Z 05006KT 22/05 A3002 RMK A01 T02170051  RH  034%=      5-min Rain = 0
KES1 242358Z 05006KT 22/05 A3002 RMK A01 T02170051  RH  034%=      5-min Rain = 0
KES1 242359Z 05005KT 22/05 A3002 RMK A01 T02160050  RH  034%=      5-min Rain = 0
KES1 250000Z 03004KT 22/05 A3002 RMK A01 T02160052  RH  034%=      5-min Rain = 0
KES1 250001Z 03005KT 22/05 A3002 RMK A01 T02160052  RH  034%=      5-min Rain = 0
KES1 250002Z 03004KT 22/05 A3002 RMK A01 T02160051  RH  034%=      5-min Rain = 0
KES1 250003Z 03005KT 22/05 A3002 RMK A01 T02160053  RH  035%=      5-min Rain = 0
KES1 250004Z 03006KT 22/05 A3002 RMK A01 T02160052  RH  034%=      5-min Rain = 0
KES1 250005Z 03006KT 22/05 A3002 RMK A01 T02160052  RH  034%=      5-min Rain = 0
KES1 250006Z 03006KT 22/05 A3002 RMK A01 T02150051  RH  034%=      5-min Rain = 0
KES1 250007Z 03006KT 22/05 A3002 RMK A01 T02150051  RH  034%=      5-min Rain = 0
KES1 250008Z 03005KT 22/05 A3002 RMK A01 T02150050  RH  034%=      5-min Rain = 0
KES1 250009Z 04004KT 22/05 A3002 RMK A01 T02150051  RH  034%=      5-min Rain = 0
KES1 250010Z 04004KT 21/05 A3002 RMK A01 T02140051  RH  034%=      5-min Rain = 0
KES1 250011Z 04004KT 21/05 A3002 RMK A01 T02140052  RH  035%=      5-min Rain = 0
KES1 250012Z 03004KT 21/05 A3002 RMK A01 T02140053  RH  035%=      5-min Rain = 0
KES1 250013Z 04005KT 21/05 A3002 RMK A01 T02140053  RH  035%=      5-min Rain = 0
KES1 250014Z 05004KT 21/05 A3002 RMK A01 T02140052  RH  035%=      5-min Rain = 0
KES1 250015Z 04005KT 21/05 A3002 RMK A01 T02130052  RH  035%=      5-min Rain = 0
KES1 250016Z 05005KT 21/05 A3002 RMK A01 T02130053  RH  035%=      5-min Rain = 0
KES1 250017Z 04005KT 21/05 A3002 RMK A01 T02120052  RH  035%=      5-min Rain = 0
KES1 250018Z 04006KT 21/05 A3002 RMK A01 T02120053  RH  035%=      5-min Rain = 0
KES1 250019Z 04005KT 21/05 A3003 RMK A01 T02110053  RH  036%=      5-min Rain = 0
KES1 250020Z 05006KT 21/05 A3003 RMK A01 T02110053  RH  036%=      5-min Rain = 0
KES1 250021Z 05006KT 21/05 A3003 RMK A01 T02110054  RH  036%=      5-min Rain = 0
KES1 250022Z 04008KT 21/06 A3003 RMK A01 T02100055  RH  036%=      5-min Rain = 0
KES1 250023Z 05008KT 21/05 A3003 RMK A01 T02090054  RH  036%=      5-min Rain = 0
KES1 250024Z 05007KT 21/05 A3003 RMK A01 T02080053  RH  036%=      5-min Rain = 0
KES1 250025Z 05007KT 21/05 A3003 RMK A01 T02080051  RH  036%=      5-min Rain = 0
KES1 250026Z 05008KT 21/05 A3003 RMK A01 T02080052  RH  036%=      5-min Rain = 0
KES1 250027Z 06007KT 21/05 A3003 RMK A01 T02080052  RH  036%=      5-min Rain = 0
KES1 250028Z 05006KT 21/05 A3003 RMK A01 T02070053  RH  036%=      5-min Rain = 0
KES1 250029Z 06006KT 21/05 A3003 RMK A01 T02060053  RH  037%=      5-min Rain = 0
KES1 250030Z 05006KT 21/05 A3003 RMK A01 T02060053  RH  037%=      5-min Rain = 0
KES1 250031Z 05005KT 21/05 A3003 RMK A01 T02050053  RH  037%=      5-min Rain = 0
KES1 250032Z 06005KT 21/05 A3003 RMK A01 T02050054  RH  037%=      5-min Rain = 0
KES1 250033Z 06005KT 20/05 A3003 RMK A01 T02040054  RH  037%=      5-min Rain = 0
KES1 250034Z 06004KT 20/05 A3003 RMK A01 T02040054  RH  037%=      5-min Rain = 0
KES1 250035Z 06004KT 20/05 A3003 RMK A01 T02030054  RH  038%=      5-min Rain = 0
KES1 250036Z 06005KT 20/05 A3003 RMK A01 T02020054  RH  038%=      5-min Rain = 0
KES1 250037Z 06005KT 20/05 A3003 RMK A01 T02020053  RH  038%=      5-min Rain = 0
KES1 250038Z 06004KT 20/05 A3003 RMK A01 T02010053  RH  038%=      5-min Rain = 0
KES1 250039Z 06004KT 20/05 A3003 RMK A01 T02010053  RH  038%=      5-min Rain = 0
KES1 250040Z 06005KT 20/05 A3003 RMK A01 T02010054  RH  038%=      5-min Rain = 0
KES1 250041Z 06005KT 20/05 A3003 RMK A01 T02000054  RH  038%=      5-min Rain = 0
KES1 250042Z 06005KT 20/05 A3003 RMK A01 T02000054  RH  038%=      5-min Rain = 0
KES1 250043Z 05005KT 20/05 A3003 RMK A01 T01990053  RH  038%=      5-min Rain = 0
KES1 250044Z 05005KT 20/05 A3003 RMK A01 T01990053  RH  038%=      5-min Rain = 0
KES1 250045Z 06005KT 20/05 A3003 RMK A01 T01980053  RH  039%=      5-min Rain = 0
KES1 250046Z 06005KT 20/05 A3003 RMK A01 T01980053  RH  039%=      5-min Rain = 0
KES1 250047Z 06005KT 20/05 A3003 RMK A01 T01970053  RH  039%=      5-min Rain = 0
KES1 250048Z 06005KT 20/05 A3003 RMK A01 T01960053  RH  039%=      5-min Rain = 0
KES1 250049Z 07005KT 20/05 A3003 RMK A01 T01950053  RH  039%=      5-min Rain = 0
KES1 250050Z 07005KT 19/05 A3003 RMK A01 T01940053  RH  039%=      5-min Rain = 0
KES1 250051Z 07005KT 19/05 A3003 RMK A01 T01930052  RH  040%=      5-min Rain = 0
KES1 250052Z 06005KT 19/05 A3003 RMK A01 T01920052  RH  040%=      5-min Rain = 0
KES1 250053Z 07005KT 19/05 A3003 RMK A01 T01910052  RH  040%=      5-min Rain = 0
KES1 250054Z 06005KT 19/05 A3003 RMK A01 T01910052  RH  040%=      5-min Rain = 0
KES1 250055Z 06005KT 19/05 A3003 RMK A01 T01890051  RH  040%=      5-min Rain = 0
KES1 250056Z 07005KT 19/05 A3003 RMK A01 T01880051  RH  040%=      5-min Rain = 0
KES1 250057Z 07005KT 19/05 A3003 RMK A01 T01870051  RH  041%=      5-min Rain = 0
KES1 250058Z 07005KT 19/05 A3003 RMK A01 T01870051  RH  041%=      5-min Rain = 0
KES1 250059Z 07005KT 18/05 A3003 RMK A01 T01840051  RH  041%=      5-min Rain = 0
KES1 250100Z 07006KT 18/05 A3003 RMK A01 T01830050  RH  042%=      5-min Rain = 0
KES1 250101Z 07006KT 18/05 A3003 RMK A01 T01820050  RH  042%=      5-min Rain = 0
KES1 250102Z 06006KT 18/05 A3003 RMK A01 T01810050  RH  042%=      5-min Rain = 0
KES1 250103Z 06006KT 18/05 A3003 RMK A01 T01800051  RH  042%=      5-min Rain = 0
KES1 250104Z 06007KT 18/05 A3003 RMK A01 T01790050  RH  043%=      5-min Rain = 0
KES1 250105Z 06007KT 18/05 A3003 RMK A01 T01790051  RH  043%=      5-min Rain = 0
KES1 250106Z 06006KT 18/05 A3003 RMK A01 T01780051  RH  043%=      5-min Rain = 0
KES1 250107Z 06006KT 18/05 A3003 RMK A01 T01780051  RH  043%=      5-min Rain = 0
KES1 250108Z 07006KT 18/05 A3003 RMK A01 T01770051  RH  043%=      5-min Rain = 0
KES1 250109Z 07005KT 18/05 A3003 RMK A01 T01760050  RH  043%=      5-min Rain = 0
KES1 250110Z 07006KT 17/05 A3003 RMK A01 T01740050  RH  044%=      5-min Rain = 0
KES1 250111Z 08006KT 17/05 A3003 RMK A01 T01720050  RH  044%=      5-min Rain = 0
KES1 250112Z 08007KT 17/05 A3003 RMK A01 T01700050  RH  045%=      5-min Rain = 0
KES1 250113Z 08006KT 17/05 A3003 RMK A01 T01700051  RH  045%=      5-min Rain = 0
KES1 250114Z 08006KT 17/05 A3003 RMK A01 T01680051  RH  046%=      5-min Rain = 0
KES1 250115Z 08006KT 17/05 A3003 RMK A01 T01680051  RH  046%=      5-min Rain = 0
KES1 250116Z 08007KT 17/05 A3003 RMK A01 T01680052  RH  046%=      5-min Rain = 0
KES1 250117Z 08007KT 17/05 A3003 RMK A01 T01680052  RH  046%=      5-min Rain = 0
KES1 250118Z 08007KT 17/05 A3003 RMK A01 T01690053  RH  046%=      5-min Rain = 0
KES1 250119Z 07007KT 17/05 A3003 RMK A01 T01700053  RH  046%=      5-min Rain = 0
KES1 250120Z 07007KT 17/05 A3003 RMK A01 T01690053  RH  046%=      5-min Rain = 0
KES1 250121Z 07007KT 17/05 A3003 RMK A01 T01700054  RH  046%=      5-min Rain = 0
KES1 250122Z 07007KT 17/05 A3003 RMK A01 T01700054  RH  046%=      5-min Rain = 0
KES1 250123Z 07007KT 17/05 A3003 RMK A01 T01700054  RH  046%=      5-min Rain = 0
KES1 250124Z 07007KT 17/05 A3003 RMK A01 T01690054  RH  047%=      5-min Rain = 0
KES1 250125Z 08007KT 17/05 A3003 RMK A01 T01690054  RH  047%=      5-min Rain = 0
KES1 250126Z 08007KT 17/05 A3003 RMK A01 T01670054  RH  047%=      5-min Rain = 0
KES1 250127Z 08007KT 17/05 A3003 RMK A01 T01670054  RH  047%=      5-min Rain = 0
KES1 250128Z 07007KT 17/05 A3003 RMK A01 T01660054  RH  048%=      5-min Rain = 0
KES1 250129Z 08007KT 17/05 A3003 RMK A01 T01660054  RH  048%=      5-min Rain = 0
KES1 250130Z 08007KT 17/06 A3003 RMK A01 T01660055  RH  048%=      5-min Rain = 0
KES1 250131Z 08007KT 17/06 A3003 RMK A01 T01660055  RH  048%=      5-min Rain = 0
KES1 250132Z 08006KT 17/06 A3003 RMK A01 T01650055  RH  048%=      5-min Rain = 0
KES1 250133Z 08007KT 17/06 A3003 RMK A01 T01650056  RH  048%=      5-min Rain = 0
KES1 250134Z 08007KT 16/06 A3004 RMK A01 T01640057  RH  049%=      5-min Rain = 0
KES1 250135Z 08007KT 16/06 A3004 RMK A01 T01640057  RH  049%=      5-min Rain = 0
KES1 250136Z 08007KT 16/06 A3004 RMK A01 T01640057  RH  049%=      5-min Rain = 0
KES1 250137Z 07007KT 16/06 A3004 RMK A01 T01640057  RH  049%=      5-min Rain = 0
KES1 250138Z 07008KT 16/06 A3004 RMK A01 T01640056  RH  049%=      5-min Rain = 0
KES1 250139Z 07009KT 16/06 A3004 RMK A01 T01640056  RH  049%=      5-min Rain = 0
KES1 250140Z 07009KT 17/06 A3004 RMK A01 T01650056  RH  048%=      5-min Rain = 0
KES1 250141Z 07009KT 17/06 A3004 RMK A01 T01650055  RH  048%=      5-min Rain = 0
KES1 250142Z 07008KT 17/06 A3004 RMK A01 T01660056  RH  048%=      5-min Rain = 0
KES1 250143Z 07008KT 17/06 A3004 RMK A01 T01660056  RH  048%=      5-min Rain = 0
KES1 250144Z 07008KT 17/06 A3004 RMK A01 T01650056  RH  048%=      5-min Rain = 0
KES1 250145Z 07008KT 17/06 A3004 RMK A01 T01650056  RH  048%=      5-min Rain = 0
KES1 250146Z 07008KT 17/06 A3004 RMK A01 T01650056  RH  048%=      5-min Rain = 0
KES1 250147Z 08009KT 17/06 A3004 RMK A01 T01650056  RH  048%=      5-min Rain = 0
KES1 250148Z 07008KT 16/06 A3004 RMK A01 T01640056  RH  049%=      5-min Rain = 0
KES1 250149Z 08008KT 16/06 A3004 RMK A01 T01630055  RH  049%=      5-min Rain = 0
KES1 250150Z 07009KT 16/06 A3004 RMK A01 T01630055  RH  049%=      5-min Rain = 0
KES1 250151Z 08009KT 16/06 A3004 RMK A01 T01630055  RH  048%=      5-min Rain = 0
KES1 250152Z 08008KT 16/06 A3004 RMK A01 T01630055  RH  048%=      5-min Rain = 0
KES1 250153Z 08009KT 16/06 A3004 RMK A01 T01630055  RH  049%=      5-min Rain = 0
KES1 250154Z 08008KT 16/06 A3004 RMK A01 T01620055  RH  049%=      5-min Rain = 0
KES1 250155Z 08008KT 16/06 A3004 RMK A01 T01620055  RH  049%=      5-min Rain = 0
KES1 250156Z 08009KT 16/05 A3004 RMK A01 T01620054  RH  049%=      5-min Rain = 0
KES1 250157Z 08008KT 16/06 A3004 RMK A01 T01630055  RH  049%=      5-min Rain = 0
KES1 250158Z 08008KT 16/06 A3004 RMK A01 T01620055  RH  049%=      5-min Rain = 0
KES1 250159Z 08009KT 16/06 A3004 RMK A01 T01620055  RH  049%=      5-min Rain = 0
KES1 250200Z 08009KT 16/06 A3004 RMK A01 T01620055  RH  049%=      5-min Rain = 0
KES1 250201Z 08009KT 16/06 A3004 RMK A01 T01630056  RH  049%=      5-min Rain = 0
KES1 250202Z 08009KT 16/06 A3004 RMK A01 T01630056  RH  049%=      5-min Rain = 0
KES1 250203Z 08010KT 16/06 A3004 RMK A01 T01640057  RH  049%=      5-min Rain = 0
KES1 250204Z 08009KT 17/06 A3004 RMK A01 T01650057  RH  049%=      5-min Rain = 0
KES1 250205Z 08010KT 17/06 A3004 RMK A01 T01650057  RH  049%=      5-min Rain = 0
KES1 250206Z 08010KT 17/06 A3004 RMK A01 T01660058  RH  049%=      5-min Rain = 0
KES1 250207Z 08010KT 17/06 A3004 RMK A01 T01660058  RH  049%=      5-min Rain = 0
KES1 250208Z 08010KT 17/06 A3004 RMK A01 T01660058  RH  049%=      5-min Rain = 0
KES1 250209Z 08010KT 17/06 A3004 RMK A01 T01660058  RH  049%=      5-min Rain = 0
KES1 250210Z 08010KT 17/06 A3004 RMK A01 T01670059  RH  049%=      5-min Rain = 0
KES1 250211Z 08010KT 17/06 A3004 RMK A01 T01660059  RH  049%=      5-min Rain = 0
KES1 250212Z 08010KT 17/06 A3004 RMK A01 T01660059  RH  049%=      5-min Rain = 0
KES1 250213Z 08010KT 17/06 A3005 RMK A01 T01660060  RH  049%=      5-min Rain = 0
KES1 250214Z 07010KT 17/06 A3005 RMK A01 T01650060  RH  050%=      5-min Rain = 0
KES1 250215Z 08010KT 17/06 A3005 RMK A01 T01650061  RH  050%=      5-min Rain = 0
KES1 250216Z 08008KT 17/06 A3005 RMK A01 T01650061  RH  050%=      5-min Rain = 0
KES1 250217Z 08008KT 16/06 A3005 RMK A01 T01640061  RH  051%=      5-min Rain = 0
KES1 250218Z 08009KT 16/06 A3005 RMK A01 T01630061  RH  051%=      5-min Rain = 0
KES1 250219Z 08008KT 16/06 A3005 RMK A01 T01620062  RH  052%=      5-min Rain = 0
KES1 250220Z 09008KT 16/06 A3005 RMK A01 T01600062  RH  052%=      5-min Rain = 0
KES1 250221Z 09007KT 16/06 A3005 RMK A01 T01600062  RH  052%=      5-min Rain = 0
KES1 250222Z 09007KT 16/06 A3006 RMK A01 T01590062  RH  052%=      5-min Rain = 0
KES1 250223Z 09008KT 16/06 A3006 RMK A01 T01580062  RH  053%=      5-min Rain = 0
KES1 250224Z 09007KT 16/06 A3006 RMK A01 T01580063  RH  053%=      5-min Rain = 0
KES1 250225Z 09007KT 16/06 A3006 RMK A01 T01570063  RH  053%=      5-min Rain = 0
KES1 250226Z 08007KT 16/06 A3006 RMK A01 T01570063  RH  053%=      5-min Rain = 0
KES1 250227Z 08007KT 16/06 A3006 RMK A01 T01570063  RH  054%=      5-min Rain = 0
KES1 250228Z 08006KT 16/06 A3006 RMK A01 T01560063  RH  054%=      5-min Rain = 0
KES1 250229Z 08006KT 16/06 A3006 RMK A01 T01550063  RH  054%=      5-min Rain = 0
KES1 250230Z 08006KT 16/06 A3006 RMK A01 T01550063  RH  054%=      5-min Rain = 0
KES1 250231Z 08007KT 15/06 A3006 RMK A01 T01540063  RH  055%=      5-min Rain = 0
KES1 250232Z 08007KT 15/06 A3006 RMK A01 T01530063  RH  055%=      5-min Rain = 0
KES1 250233Z 08006KT 15/06 A3006 RMK A01 T01530063  RH  055%=      5-min Rain = 0
KES1 250234Z 09007KT 15/06 A3006 RMK A01 T01540063  RH  055%=      5-min Rain = 0
KES1 250235Z 08007KT 15/06 A3006 RMK A01 T01540063  RH  055%=      5-min Rain = 0
KES1 250236Z 09008KT 15/06 A3006 RMK A01 T01530063  RH  055%=      5-min Rain = 0
KES1 250237Z 09007KT 15/06 A3006 RMK A01 T01520062  RH  055%=      5-min Rain = 0
KES1 250238Z 09007KT 15/06 A3006 RMK A01 T01520062  RH  055%=      5-min Rain = 0
KES1 250239Z 09007KT 15/06 A3006 RMK A01 T01500062  RH  055%=      5-min Rain = 0
KES1 250240Z 09007KT 15/06 A3006 RMK A01 T01510062  RH  055%=      5-min Rain = 0
KES1 250241Z 09007KT 15/06 A3006 RMK A01 T01500062  RH  055%=      5-min Rain = 0
KES1 250242Z 09007KT 15/06 A3006 RMK A01 T01510062  RH  055%=      5-min Rain = 0
KES1 250243Z 08007KT 15/06 A3006 RMK A01 T01500061  RH  055%=      5-min Rain = 0
KES1 250244Z 09008KT 15/06 A3006 RMK A01 T01500061  RH  055%=      5-min Rain = 0
KES1 250245Z 09007KT 15/06 A3006 RMK A01 T01500061  RH  055%=      5-min Rain = 0
KES1 250246Z 09008KT 15/06 A3006 RMK A01 T01500061  RH  055%=      5-min Rain = 0
KES1 250247Z 09008KT 15/06 A3006 RMK A01 T01500061  RH  055%=      5-min Rain = 0
KES1 250248Z 09008KT 15/06 A3006 RMK A01 T01500061  RH  055%=      5-min Rain = 0
KES1 250249Z 09009KT 15/06 A3006 RMK A01 T01500060  RH  055%=      5-min Rain = 0
KES1 250250Z 09010KT 15/06 A3006 RMK A01 T01500061  RH  055%=      5-min Rain = 0
KES1 250251Z 09009KT 15/06 A3006 RMK A01 T01510061  RH  055%=      5-min Rain = 0
KES1 250252Z 09009KT 15/06 A3006 RMK A01 T01520061  RH  055%=      5-min Rain = 0
KES1 250253Z 09010KT 15/06 A3006 RMK A01 T01510060  RH  054%=      5-min Rain = 0
KES1 250254Z 09010KT 15/06 A3006 RMK A01 T01520060  RH  054%=      5-min Rain = 0
KES1 250255Z 09010KT 15/06 A3006 RMK A01 T01520060  RH  054%=      5-min Rain = 0
KES1 250256Z 09010KT 15/06 A3006 RMK A01 T01520060  RH  054%=      5-min Rain = 0
KES1 250257Z 09010KT 15/06 A3006 RMK A01 T01530060  RH  054%=      5-min Rain = 0
KES1 250258Z 09009KT 15/06 A3006 RMK A01 T01520060  RH  054%=      5-min Rain = 0
KES1 250259Z 09010KT 15/06 A3006 RMK A01 T01520060  RH  054%=      5-min Rain = 0
KES1 250300Z 09009KT 15/06 A3007 RMK A01 T01520060  RH  054%=      5-min Rain = 0
KES1 250301Z 09009KT 15/06 A3007 RMK A01 T01520060  RH  054%=      5-min Rain = 0
KES1 250302Z 09010KT 15/06 A3007 RMK A01 T01520059  RH  054%=      5-min Rain = 0
KES1 250303Z 09010KT 15/06 A3007 RMK A01 T01520059  RH  054%=      5-min Rain = 0
KES1 250304Z 09009KT 15/06 A3007 RMK A01 T01520059  RH  054%=      5-min Rain = 0
KES1 250305Z 09008KT 15/06 A3007 RMK A01 T01520059  RH  054%=      5-min Rain = 0
KES1 250306Z 09009KT 15/06 A3007 RMK A01 T01510059  RH  054%=      5-min Rain = 0
KES1 250307Z 09007KT 15/06 A3007 RMK A01 T01510059  RH  054%=      5-min Rain = 0
KES1 250308Z 09009KT 15/06 A3007 RMK A01 T01500059  RH  054%=      5-min Rain = 0
KES1 250309Z 09008KT 15/06 A3007 RMK A01 T01490059  RH  055%=      5-min Rain = 0
KES1 250310Z 09008KT 15/06 A3007 RMK A01 T01490059  RH  055%=      5-min Rain = 0
KES1 250311Z 09009KT 15/06 A3007 RMK A01 T01500059  RH  055%=      5-min Rain = 0
KES1 250312Z 08009KT 15/06 A3007 RMK A01 T01500059  RH  054%=      5-min Rain = 0
KES1 250313Z 09009KT 15/06 A3007 RMK A01 T01500059  RH  054%=      5-min Rain = 0
KES1 250314Z 09009KT 15/06 A3007 RMK A01 T01500059  RH  054%=      5-min Rain = 0
KES1 250315Z 08009KT 15/06 A3007 RMK A01 T01500059  RH  054%=      5-min Rain = 0
KES1 250316Z 08009KT 15/06 A3007 RMK A01 T01500059  RH  055%=      5-min Rain = 0
KES1 250317Z 08008KT 15/06 A3007 RMK A01 T01490059  RH  055%=      5-min Rain = 0
KES1 250318Z 08008KT 15/06 A3007 RMK A01 T01490059  RH  055%=      5-min Rain = 0
KES1 250319Z 08008KT 15/06 A3007 RMK A01 T01490059  RH  055%=      5-min Rain = 0
KES1 250320Z 08008KT 15/06 A3007 RMK A01 T01490059  RH  055%=      5-min Rain = 0
KES1 250321Z 08009KT 15/06 A3007 RMK A01 T01480059  RH  055%=      5-min Rain = 0
KES1 250322Z 08009KT 15/06 A3007 RMK A01 T01470058  RH  055%=      5-min Rain = 0
KES1 250323Z 08008KT 15/06 A3007 RMK A01 T01470059  RH  055%=      5-min Rain = 0
KES1 250324Z 08008KT 15/06 A3007 RMK A01 T01470058  RH  055%=      5-min Rain = 0
KES1 250325Z 07008KT 15/06 A3007 RMK A01 T01460058  RH  056%=      5-min Rain = 0
KES1 250326Z 08007KT 15/06 A3007 RMK A01 T01450058  RH  056%=      5-min Rain = 0
KES1 250327Z 08008KT 15/06 A3007 RMK A01 T01450058  RH  056%=      5-min Rain = 0
KES1 250328Z 08007KT 15/06 A3007 RMK A01 T01450058  RH  056%=      5-min Rain = 0
KES1 250329Z 08007KT 15/06 A3007 RMK A01 T01450058  RH  056%=      5-min Rain = 0
KES1 250330Z 08007KT 14/06 A3007 RMK A01 T01440058  RH  056%=      5-min Rain = 0
KES1 250331Z 08007KT 14/06 A3007 RMK A01 T01440058  RH  056%=      5-min Rain = 0
KES1 250332Z 08007KT 14/06 A3007 RMK A01 T01440058  RH  056%=      5-min Rain = 0
KES1 250333Z 08007KT 14/06 A3007 RMK A01 T01420058  RH  057%=      5-min Rain = 0
KES1 250334Z 08008KT 14/06 A3007 RMK A01 T01420058  RH  057%=      5-min Rain = 0
KES1 250335Z 07008KT 14/06 A3007 RMK A01 T01410058  RH  057%=      5-min Rain = 0
KES1 250336Z 07008KT 14/06 A3007 RMK A01 T01410058  RH  057%=      5-min Rain = 0
KES1 250337Z 08008KT 14/06 A3007 RMK A01 T01400058  RH  057%=      5-min Rain = 0
KES1 250338Z 08007KT 14/06 A3007 RMK A01 T01400058  RH  058%=      5-min Rain = 0
KES1 250339Z 08007KT 14/06 A3007 RMK A01 T01390058  RH  058%=      5-min Rain = 0
KES1 250340Z 08007KT 14/06 A3007 RMK A01 T01390057  RH  058%=      5-min Rain = 0
KES1 250341Z 08007KT 14/06 A3007 RMK A01 T01380057  RH  058%=      5-min Rain = 0
KES1 250342Z 08007KT 14/06 A3007 RMK A01 T01370057  RH  058%=      5-min Rain = 0
KES1 250343Z 08007KT 14/06 A3007 RMK A01 T01370057  RH  059%=      5-min Rain = 0
KES1 250344Z 08007KT 14/06 A3007 RMK A01 T01370057  RH  059%=      5-min Rain = 0
KES1 250345Z 08006KT 14/06 A3007 RMK A01 T01360057  RH  059%=      5-min Rain = 0
KES1 250346Z 08006KT 14/06 A3007 RMK A01 T01360057  RH  059%=      5-min Rain = 0
KES1 250347Z 09006KT 14/06 A3007 RMK A01 T01350057  RH  059%=      5-min Rain = 0
KES1 250348Z 09006KT 14/06 A3007 RMK A01 T01350057  RH  059%=      5-min Rain = 0
KES1 250349Z 09005KT 13/06 A3007 RMK A01 T01340057  RH  059%=      5-min Rain = 0
KES1 250350Z 09006KT 13/06 A3007 RMK A01 T01340057  RH  059%=      5-min Rain = 0
KES1 250351Z 09006KT 13/06 A3007 RMK A01 T01340057  RH  059%=      5-min Rain = 0
KES1 250352Z 09006KT 13/06 A3007 RMK A01 T01340056  RH  059%=      5-min Rain = 0
KES1 250353Z 09005KT 13/06 A3007 RMK A01 T01340056  RH  059%=      5-min Rain = 0
KES1 250354Z 09006KT 13/06 A3007 RMK A01 T01340057  RH  059%=      5-min Rain = 0
KES1 250355Z 09006KT 13/06 A3007 RMK A01 T01340057  RH  059%=      5-min Rain = 0
KES1 250356Z 09006KT 14/06 A3007 RMK A01 T01350057  RH  059%=      5-min Rain = 0
KES1 250357Z 09006KT 13/06 A3007 RMK A01 T01340056  RH  059%=      5-min Rain = 0
KES1 250358Z 09006KT 14/06 A3007 RMK A01 T01350056  RH  059%=      5-min Rain = 0
KES1 250359Z 09006KT 14/06 A3007 RMK A01 T01350056  RH  059%=      5-min Rain = 0
KES1 250400Z 08007KT 14/06 A3007 RMK A01 T01360056  RH  059%=      5-min Rain = 0
KES1 250401Z 08006KT 14/06 A3007 RMK A01 T01350056  RH  058%=      5-min Rain = 0
KES1 250402Z 08006KT 14/06 A3007 RMK A01 T01350056  RH  058%=      5-min Rain = 0
KES1 250403Z 09006KT 14/06 A3007 RMK A01 T01350055  RH  059%=      5-min Rain = 0
KES1 250404Z 09006KT 14/06 A3007 RMK A01 T01350056  RH  059%=      5-min Rain = 0
KES1 250405Z 09006KT 13/06 A3007 RMK A01 T01340055  RH  059%=      5-min Rain = 0
KES1 250406Z 10005KT 13/06 A3007 RMK A01 T01330055  RH  059%=      5-min Rain = 0
KES1 250407Z 09006KT 13/06 A3007 RMK A01 T01330055  RH  059%=      5-min Rain = 0
KES1 250408Z 09006KT 13/06 A3007 RMK A01 T01330055  RH  059%=      5-min Rain = 0
KES1 250409Z 09006KT 13/06 A3007 RMK A01 T01330055  RH  059%=      5-min Rain = 0
KES1 250410Z 09006KT 13/06 A3007 RMK A01 T01330055  RH  059%=      5-min Rain = 0
KES1 250411Z 09006KT 13/06 A3007 RMK A01 T01330055  RH  059%=      5-min Rain = 0
KES1 250412Z 09006KT 13/06 A3007 RMK A01 T01340055  RH  059%=      5-min Rain = 0
KES1 250413Z 09005KT 13/06 A3007 RMK A01 T01330055  RH  059%=      5-min Rain = 0
KES1 250414Z 09006KT 13/06 A3007 RMK A01 T01330055  RH  059%=      5-min Rain = 0
KES1 250415Z 09005KT 13/06 A3007 RMK A01 T01340055  RH  059%=      5-min Rain = 0
KES1 250416Z 09005KT 13/06 A3007 RMK A01 T01330055  RH  059%=      5-min Rain = 0
KES1 250417Z 09005KT 13/06 A3007 RMK A01 T01330055  RH  059%=      5-min Rain = 0
KES1 250418Z 09005KT 13/06 A3007 RMK A01 T01330055  RH  059%=      5-min Rain = 0
KES1 250419Z 09005KT 13/06 A3007 RMK A01 T01330056  RH  059%=      5-min Rain = 0
KES1 250420Z 09005KT 13/06 A3007 RMK A01 T01330056  RH  060%=      5-min Rain = 0
KES1 250421Z 09005KT 13/06 A3007 RMK A01 T01320055  RH  060%=      5-min Rain = 0
KES1 250422Z 10005KT 13/06 A3007 RMK A01 T01320056  RH  060%=      5-min Rain = 0
KES1 250423Z 09005KT 13/06 A3007 RMK A01 T01320055  RH  060%=      5-min Rain = 0
KES1 250424Z 09004KT 13/06 A3007 RMK A01 T01310055  RH  060%=      5-min Rain = 0
KES1 250425Z 10005KT 13/06 A3008 RMK A01 T01320055  RH  060%=      5-min Rain = 0
KES1 250426Z 09004KT 13/06 A3008 RMK A01 T01310055  RH  060%=      5-min Rain = 0
KES1 250427Z 09004KT 13/06 A3008 RMK A01 T01310055  RH  060%=      5-min Rain = 0
KES1 250428Z 09004KT 13/06 A3008 RMK A01 T01310056  RH  060%=      5-min Rain = 0
KES1 250429Z 09004KT 13/06 A3008 RMK A01 T01320056  RH  060%=      5-min Rain = 0
KES1 250430Z 10004KT 13/06 A3008 RMK A01 T01320056  RH  060%=      5-min Rain = 0
KES1 250431Z 09004KT 13/06 A3008 RMK A01 T01330056  RH  060%=      5-min Rain = 0
KES1 250432Z 09004KT 13/06 A3008 RMK A01 T01320055  RH  060%=      5-min Rain = 0
KES1 250433Z 09004KT 13/06 A3008 RMK A01 T01320056  RH  060%=      5-min Rain = 0
KES1 250434Z 09004KT 13/06 A3008 RMK A01 T01310056  RH  060%=      5-min Rain = 0
KES1 250435Z 09004KT 13/06 A3008 RMK A01 T01320056  RH  060%=      5-min Rain = 0
KES1 250436Z 08004KT 13/06 A3008 RMK A01 T01320056  RH  060%=      5-min Rain = 0
KES1 250437Z 08004KT 13/06 A3008 RMK A01 T01320056  RH  060%=      5-min Rain = 0
KES1 250438Z 08004KT 13/06 A3008 RMK A01 T01320056  RH  060%=      5-min Rain = 0
KES1 250439Z 08004KT 13/06 A3008 RMK A01 T01320056  RH  060%=      5-min Rain = 0
KES1 250440Z 08004KT 13/06 A3008 RMK A01 T01320056  RH  060%=      5-min Rain = 0
KES1 250441Z 07004KT 13/06 A3008 RMK A01 T01320056  RH  060%=      5-min Rain = 0
KES1 250442Z 07003KT 13/06 A3008 RMK A01 T01310056  RH  060%=      5-min Rain = 0
KES1 250443Z 07003KT 13/06 A3008 RMK A01 T01310055  RH  060%=      5-min Rain = 0
KES1 250444Z 06003KT 13/06 A3008 RMK A01 T01310055  RH  060%=      5-min Rain = 0
KES1 250445Z 06002KT 13/06 A3008 RMK A01 T01300055  RH  060%=      5-min Rain = 0
KES1 250446Z 06002KT 13/05 A3008 RMK A01 T01290054  RH  061%=      5-min Rain = 0
KES1 250447Z 06002KT 13/06 A3008 RMK A01 T01270055  RH  061%=      5-min Rain = 0
KES1 250448Z 06002KT 13/05 A3008 RMK A01 T01250054  RH  062%=      5-min Rain = 0
KES1 250449Z 03001KT 13/06 A3008 RMK A01 T01250055  RH  062%=      5-min Rain = 0
KES1 250450Z 03001KT 13/06 A3008 RMK A01 T01250055  RH  062%=      5-min Rain = 0
KES1 250451Z 02001KT 12/06 A3008 RMK A01 T01240055  RH  063%=      5-min Rain = 0
KES1 250452Z 02002KT 12/06 A3008 RMK A01 T01240055  RH  063%=      5-min Rain = 0
KES1 250453Z 02002KT 12/06 A3008 RMK A01 T01230055  RH  063%=      5-min Rain = 0
KES1 250454Z 01002KT 12/06 A3008 RMK A01 T01230055  RH  063%=      5-min Rain = 0
KES1 250455Z 00002KT 12/06 A3009 RMK A01 T01230055  RH  063%=      5-min Rain = 0
KES1 250456Z 35002KT 12/06 A3009 RMK A01 T01230055  RH  063%=      5-min Rain = 0
KES1 250457Z 34002KT 12/06 A3009 RMK A01 T01220055  RH  064%=      5-min Rain = 0
KES1 250458Z 34002KT 12/06 A3009 RMK A01 T01220055  RH  064%=      5-min Rain = 0
KES1 250459Z 33002KT 12/06 A3009 RMK A01 T01220055  RH  064%=      5-min Rain = 0

Page generated in 0.0808 seconds.